M I D A S
Marine Information and Data Acquisition System
Tripno 1201 of the Zeeleeuw from 2007-01-16 07:30:47 to 2007-01-16 16:02:14
Back to CruiseResearch ActivitiesStationsMapUnderway DataData graphs

EquipmentUnitsComment
TimeDGPSUTC
LatitudeDGPSDM.mWGS84
LongitudeDGPSDM.mWGS84
TemperatureSBE03/SBE38deg celciusITS90
ConductivitySBE21S/mITS90
SalinitySBE21 Practical Salinity Units
ChlorophylAChelsea fluorimeterg/lCalibrated in Aceton
Missing or incorrect values are displayed as -999
Sea surface data collected by the RV Zeeleeuw from 2007-01-16 07:34:15 to 2007-01-16 16:20:21
                                                                                    Next 1000 lines
Time Latitude Longitude Temperature Conductivity Salinity ChlorophylA
2007-01-16 07:34:25 51°13.597 2°56.094 15.7265 0.068794 0.364465 -2.871232
2007-01-16 07:34:30 51°13.598 2°56.093 15.7374 0.068794 0.364458 -2.871232
2007-01-16 07:34:35 51°13.598 2°56.092 15.6887 0.068794 0.364458 -2.871232
2007-01-16 07:34:40 51°13.599 2°56.09 15.6826 0.068794 0.364451 -2.871232
2007-01-16 07:34:46 51°13.599 2°56.087 15.7946 0.068794 0.364445 -2.871232
2007-01-16 07:34:50 51°13.6 2°56.085 15.7796 0.068794 0.364438 -2.871232
2007-01-16 07:34:55 51°13.601 2°56.082 15.9138 0.068794 0.364438 -2.871232
2007-01-16 07:35:00 51°13.602 2°56.078 15.8594 0.068794 0.364438 -2.871232
2007-01-16 07:35:06 51°13.603 2°56.074 15.8036 0.068794 0.364431 -2.871232
2007-01-16 07:35:10 51°13.604 2°56.071 15.7704 0.068794 0.364431 -2.871232
2007-01-16 07:35:15 51°13.605 2°56.067 15.7486 0.068794 0.364424 -2.871232
2007-01-16 07:35:20 51°13.607 2°56.062 15.7665 0.068794 0.364424 -2.871232
2007-01-16 07:35:26 51°13.608 2°56.057 15.8095 0.068794 0.364424 -2.871232
2007-01-16 07:35:30 51°13.609 2°56.053 15.8475 0.068794 0.364424 -2.871232
2007-01-16 07:35:35 51°13.61 2°56.049 15.9082 0.068794 0.364417 -2.871232
2007-01-16 07:35:40 51°13.611 2°56.045 15.9019 0.068794 0.36441 -2.871232
2007-01-16 07:35:45 51°13.611 2°56.041 15.9333 0.068794 0.36441 -2.871232
2007-01-16 07:35:51 51°13.612 2°56.037 15.9549 0.068794 0.364403 -2.871232
2007-01-16 07:35:55 51°13.612 2°56.034 15.9903 0.068794 0.364403 -2.871232
2007-01-16 07:36:00 51°13.613 2°56.032 16.0362 0.068794 0.364403 -2.871232
2007-01-16 07:36:05 51°13.613 2°56.03 16.0433 0.068794 0.364403 -2.871232
2007-01-16 07:36:10 51°13.613 2°56.03 15.8278 0.068794 0.36441 -2.871232
2007-01-16 07:36:15 51°13.613 2°56.029 15.9889 0.068794 0.36441 -2.871232
2007-01-16 07:36:20 51°13.614 2°56.028 15.8329 0.068794 0.36441 -2.871232
2007-01-16 07:36:25 51°13.614 2°56.027 15.9283 0.068794 0.36441 -2.871232
2007-01-16 07:36:30 51°13.614 2°56.025 15.9613 0.068794 0.364403 -2.871232
2007-01-16 07:36:35 51°13.614 2°56.023 15.8031 0.068794 0.364403 -2.871232
2007-01-16 07:36:40 51°13.615 2°56.021 15.945 0.068897 0.364965 -2.871232
2007-01-16 07:36:45 51°13.616 2°56.018 15.8593 0.068794 0.364396 -2.871232
2007-01-16 07:36:50 51°13.616 2°56.015 15.9418 0.068794 0.364389 -2.871232
2007-01-16 07:36:55 51°13.617 2°56.012 15.8834 0.068794 0.364389 -2.871232
2007-01-16 07:37:01 51°13.617 2°56.007 15.9397 0.068794 0.364389 -2.871232
2007-01-16 07:37:06 51°13.618 2°56.003 15.9052 0.068794 0.364396 -2.871232
2007-01-16 07:37:10 51°13.619 2°56 15.951 0.068794 0.364396 -2.871232
2007-01-16 07:37:15 51°13.62 2°55.995 15.9057 0.068794 0.364403 -2.871232
2007-01-16 07:37:20 51°13.621 2°55.991 15.9476 0.068794 0.364403 -2.871232
2007-01-16 07:37:26 51°13.623 2°55.985 15.9286 0.068794 0.364403 -2.871232
2007-01-16 07:37:31 51°13.624 2°55.98 15.96 0.068794 0.364403 -2.871232
2007-01-16 07:37:36 51°13.625 2°55.975 15.9773 0.068794 0.364396 -2.871232
2007-01-16 07:37:40 51°13.626 2°55.97 15.966 0.068794 0.364396 -2.871232
2007-01-16 07:37:46 51°13.628 2°55.964 15.9609 0.068897 0.364952 -2.871232
2007-01-16 07:37:51 51°13.63 2°55.958 15.9641 0.068794 0.364376 -2.871232
2007-01-16 07:37:56 51°13.632 2°55.952 15.9666 0.068794 0.364376 -2.871232
2007-01-16 07:38:01 51°13.634 2°55.946 15.9752 0.068794 0.364376 -2.871232
2007-01-16 07:38:06 51°13.636 2°55.94 15.974 0.068794 0.364376 -2.871232
2007-01-16 07:38:10 51°13.637 2°55.935 15.965 0.068794 0.364376 -2.871232
2007-01-16 07:38:16 51°13.64 2°55.927 15.9655 0.068794 0.364376 -2.871232
2007-01-16 07:38:21 51°13.643 2°55.92 16.0186 0.068794 0.364376 -2.871232
2007-01-16 07:38:25 51°13.644 2°55.915 16.0276 0.068794 0.364376 -2.871232
2007-01-16 07:38:30 51°13.647 2°55.909 15.9843 0.068794 0.364376 -2.871232
2007-01-16 07:38:36 51°13.65 2°55.901 15.9824 0.068794 0.364376 -2.871232
2007-01-16 07:38:41 51°13.653 2°55.895 15.943 0.068794 0.364376 -2.871232
2007-01-16 07:38:45 51°13.655 2°55.89 15.9646 0.068794 0.364369 -2.871232
2007-01-16 07:38:50 51°13.657 2°55.883 15.9656 0.068794 0.364362 -2.871232
2007-01-16 07:38:55 51°13.66 2°55.877 15.972 0.068794 0.364362 -2.871232
2007-01-16 07:39:01 51°13.664 2°55.869 15.9746 0.068897 0.364924 -2.871232
2007-01-16 07:39:06 51°13.667 2°55.862 15.9789 0.068794 0.364362 -2.871232
2007-01-16 07:39:10 51°13.669 2°55.857 15.9642 0.068794 0.364355 -2.871232
2007-01-16 07:39:16 51°13.673 2°55.849 15.9595 0.068794 0.364355 -2.871232
2007-01-16 07:39:21 51°13.676 2°55.843 15.9397 0.068794 0.364348 -2.871232
2007-01-16 07:39:26 51°13.679 2°55.836 15.9405 0.068794 0.364348 -2.871232
2007-01-16 07:39:31 51°13.682 2°55.83 15.8614 0.068794 0.364348 -2.871232
2007-01-16 07:39:36 51°13.685 2°55.823 15.8857 0.068794 0.364341 -2.871232
2007-01-16 07:39:40 51°13.687 2°55.818 15.8459 0.068794 0.364341 -2.871232
2007-01-16 07:39:46 51°13.691 2°55.81 15.838 0.068794 0.364341 -2.871232
2007-01-16 07:39:50 51°13.693 2°55.805 15.8441 0.068794 0.364341 -2.871232
2007-01-16 07:39:55 51°13.696 2°55.798 15.8488 0.068794 0.364341 -2.871232
2007-01-16 07:40:01 51°13.699 2°55.79 15.776 0.068794 0.364334 -2.871232
2007-01-16 07:40:05 51°13.701 2°55.784 15.7699 0.068794 0.364334 -2.871232
2007-01-16 07:40:10 51°13.703 2°55.778 15.722 0.068794 0.364327 -2.871232
2007-01-16 07:40:15 51°13.705 2°55.771 15.6536 0.068794 0.364327 -2.871232
2007-01-16 07:40:20 51°13.707 2°55.764 15.6245 0.068794 0.36432 -2.871232
2007-01-16 07:40:25 51°13.708 2°55.758 15.6239 0.068794 0.36432 -2.871232
2007-01-16 07:40:30 51°13.709 2°55.752 15.6284 0.068794 0.364314 -2.871232
2007-01-16 07:40:35 51°13.71 2°55.745 15.6752 0.068897 0.364869 -2.871232
2007-01-16 07:40:40 51°13.711 2°55.739 15.8205 0.068897 0.364869 -2.871232
2007-01-16 07:40:45 51°13.711 2°55.733 15.7908 0.068897 0.364869 -2.871232
2007-01-16 07:40:50 51°13.712 2°55.727 15.7723 0.068794 0.364307 -2.871232
2007-01-16 07:40:55 51°13.713 2°55.722 15.8692 0.068794 0.364307 -2.871232
2007-01-16 07:41:00 51°13.713 2°55.717 15.8997 0.068794 0.364307 -2.871232
2007-01-16 07:41:05 51°13.713 2°55.713 15.9738 0.068794 0.364307 -2.871232
2007-01-16 07:41:10 51°13.714 2°55.71 15.9532 0.068794 0.3643 -2.871232
2007-01-16 07:41:15 51°13.714 2°55.707 15.9661 0.068794 0.364293 -2.871232
2007-01-16 07:41:20 51°13.714 2°55.704 15.9602 0.068794 0.364286 -2.871232
2007-01-16 07:41:25 51°13.715 2°55.701 15.9564 0.068794 0.364286 -2.871232
2007-01-16 07:41:30 51°13.715 2°55.7 15.9875 0.068794 0.364286 -2.871232
2007-01-16 07:41:35 51°13.715 2°55.698 15.9828 0.068794 0.364279 -2.871232
2007-01-16 07:41:40 51°13.715 2°55.698 15.993 0.068794 0.364286 -2.871232
2007-01-16 07:41:45 51°13.716 2°55.698 15.9765 0.068897 0.364848 -2.871232
2007-01-16 07:41:50 51°13.716 2°55.698 15.9917 0.068794 0.364286 -2.871232
2007-01-16 07:41:55 51°13.717 2°55.699 15.9995 0.068794 0.364286 -2.871232
2007-01-16 07:42:00 51°13.718 2°55.701 15.989 0.068794 0.364286 -2.871232
2007-01-16 07:42:05 51°13.718 2°55.702 15.988 0.068794 0.364286 -2.871232
2007-01-16 07:42:10 51°13.719 2°55.704 16.0132 0.068794 0.364286 -2.871232
2007-01-16 07:42:15 51°13.721 2°55.706 16.0167 0.068794 0.364286 -2.871232
2007-01-16 07:42:20 51°13.722 2°55.709 16.0229 0.068794 0.364286 -2.871232
2007-01-16 07:42:26 51°13.724 2°55.711 16.051 0.068794 0.364286 -2.871232
2007-01-16 07:42:30 51°13.725 2°55.713 15.9744 0.068794 0.364286 -2.871232
2007-01-16 07:42:35 51°13.726 2°55.715 15.8766 0.068794 0.364286 -2.871232
2007-01-16 07:42:40 51°13.728 2°55.716 15.7987 0.068794 0.364279 -2.871232
2007-01-16 07:42:45 51°13.729 2°55.718 15.9619 0.068794 0.364279 -2.871232
2007-01-16 07:42:50 51°13.73 2°55.718 15.9687 0.068794 0.364272 -2.871232
2007-01-16 07:42:55 51°13.73 2°55.718 15.9453 0.068794 0.364272 -2.871232
2007-01-16 07:43:00 51°13.73 2°55.718 15.7519 0.068794 0.364272 -2.871232
2007-01-16 07:43:05 51°13.73 2°55.718 16.0078 0.068794 0.364265 -2.871232
2007-01-16 07:43:10 51°13.729 2°55.717 15.8636 0.068794 0.364265 -2.871232
2007-01-16 07:43:15 51°13.728 2°55.715 16.0163 0.068794 0.364258 -2.871232
2007-01-16 07:43:20 51°13.727 2°55.714 15.9858 0.068794 0.364252 -2.871232
2007-01-16 07:43:25 51°13.726 2°55.713 15.9864 0.068794 0.364252 -2.871232
2007-01-16 07:43:30 51°13.725 2°55.712 15.9806 0.068794 0.364252 -2.871232
2007-01-16 07:43:35 51°13.725 2°55.711 15.989 0.068794 0.364252 -2.871232
2007-01-16 07:43:41 51°13.725 2°55.71 15.9922 0.068794 0.364245 -2.871232
2007-01-16 07:43:46 51°13.725 2°55.71 15.9971 0.068794 0.364245 -2.871232
2007-01-16 07:43:50 51°13.725 2°55.71 16.0082 0.068794 0.364252 -2.871232
2007-01-16 07:43:55 51°13.726 2°55.711 16.0471 0.068794 0.364252 -2.871232
2007-01-16 07:44:00 51°13.727 2°55.711 16.0481 0.068897 0.364814 -2.871232
2007-01-16 07:44:05 51°13.729 2°55.712 16.0823 0.068794 0.364252 -2.871232
2007-01-16 07:44:10 51°13.731 2°55.712 16.0859 0.068794 0.364252 -2.871232
2007-01-16 07:44:15 51°13.734 2°55.712 16.0799 0.068794 0.364258 -2.871232
2007-01-16 07:44:20 51°13.737 2°55.711 16.0982 0.068794 0.364265 -2.871232
2007-01-16 07:44:26 51°13.74 2°55.71 16.1053 0.068794 0.364265 -2.871232
2007-01-16 07:44:30 51°13.742 2°55.709 16.1389 0.068794 0.364272 -2.871232
2007-01-16 07:44:35 51°13.746 2°55.707 16.0983 0.068794 0.364272 -2.871232
2007-01-16 07:44:40 51°13.75 2°55.704 16.1239 0.068794 0.364258 -2.871232
2007-01-16 07:44:46 51°13.756 2°55.699 16.0291 0.068794 0.364238 -2.871232
2007-01-16 07:44:50 51°13.76 2°55.696 16.0447 0.068794 0.364196 -2.871232
2007-01-16 07:44:55 51°13.765 2°55.691 15.8978 0.068794 0.364196 -2.871232
2007-01-16 07:45:00 51°13.772 2°55.686 15.8755 0.068794 0.364162 -2.871232
2007-01-16 07:45:05 51°13.778 2°55.68 15.9014 0.068794 0.364155 -2.871232
2007-01-16 07:45:10 51°13.784 2°55.674 15.9114 0.068794 0.364162 -2.871232
2007-01-16 07:45:15 51°13.792 2°55.668 15.8993 0.068897 0.364751 -2.871232
2007-01-16 07:45:20 51°13.799 2°55.663 15.8878 0.068897 0.364772 -2.871232
2007-01-16 07:45:25 51°13.807 2°55.657 15.8442 0.068897 0.364772 -2.871232
2007-01-16 07:45:30 51°13.815 2°55.651 15.8791 0.068794 0.364231 -2.871232
2007-01-16 07:45:35 51°13.823 2°55.645 15.9015 0.068794 0.364245 -2.871232
2007-01-16 07:45:40 51°13.831 2°55.638 15.8813 0.068794 0.364245 -2.871232
2007-01-16 07:45:45 51°13.84 2°55.632 15.8753 0.068897 0.3648 -2.871232
2007-01-16 07:45:50 51°13.849 2°55.626 15.8502 0.068794 0.364224 -2.871232
2007-01-16 07:45:55 51°13.858 2°55.619 15.9022 0.068794 0.364224 -2.871232
2007-01-16 07:46:00 51°13.867 2°55.613 15.9321 0.068794 0.364217 -2.871232
2007-01-16 07:46:05 51°13.876 2°55.606 15.9557 0.068897 0.364779 -2.871232
2007-01-16 07:46:10 51°13.886 2°55.599 15.9202 0.068794 0.364217 -2.871232
2007-01-16 07:46:15 51°13.895 2°55.592 15.9669 0.068794 0.364224 -2.871232
2007-01-16 07:46:20 51°13.904 2°55.584 15.8992 0.068794 0.364231 -2.871232
2007-01-16 07:46:25 51°13.914 2°55.578 15.9078 0.068794 0.364231 -2.871232
2007-01-16 07:46:30 51°13.923 2°55.571 15.8271 0.068897 0.364793 -2.871232
2007-01-16 07:46:35 51°13.933 2°55.564 15.846 0.068794 0.364231 -2.871232
2007-01-16 07:46:40 51°13.942 2°55.557 15.8009 0.068794 0.364224 -2.871232
2007-01-16 07:46:46 51°13.954 2°55.549 15.8456 0.068897 0.364779 -2.871232
2007-01-16 07:46:50 51°13.962 2°55.543 15.8395 0.068897 0.364772 -2.871232
2007-01-16 07:46:55 51°13.971 2°55.537 15.8769 0.068897 0.364772 -2.871232
2007-01-16 07:47:00 51°13.981 2°55.53 15.9136 0.068794 0.364203 -2.871232
2007-01-16 07:47:05 51°13.991 2°55.523 15.8886 0.068794 0.364203 -2.871232
2007-01-16 07:47:10 51°14.001 2°55.517 15.8984 0.068897 0.364772 -2.871232
2007-01-16 07:47:15 51°14.01 2°55.51 15.9029 0.068794 0.36421 -2.871232
2007-01-16 07:47:20 51°14.02 2°55.503 15.9752 0.068897 0.364779 -2.871232
2007-01-16 07:47:25 51°14.03 2°55.496 15.944 0.068897 0.364779 -2.871232
2007-01-16 07:47:30 51°14.039 2°55.488 15.8708 0.068794 0.364217 -2.871232
2007-01-16 07:47:35 51°14.049 2°55.481 15.8843 0.068794 0.36421 -2.871232
2007-01-16 07:47:40 51°14.059 2°55.474 15.9311 0.068897 0.364772 -2.871232
2007-01-16 07:47:45 51°14.068 2°55.467 15.994 0.068897 0.364772 -2.871232
2007-01-16 07:47:50 51°14.078 2°55.46 15.919 0.068897 0.364765 -2.871232
2007-01-16 07:47:55 51°14.088 2°55.452 15.8964 0.068897 0.364765 -2.871232
2007-01-16 07:48:00 51°14.097 2°55.445 15.8745 0.068794 0.364203 -2.871232
2007-01-16 07:48:05 51°14.107 2°55.438 15.9653 0.068794 0.364196 -2.871232
2007-01-16 07:48:10 51°14.117 2°55.431 15.9868 0.068794 0.364203 -2.871232
2007-01-16 07:48:15 51°14.127 2°55.423 15.9672 0.068897 0.364765 -2.871232
2007-01-16 07:48:20 51°14.136 2°55.416 15.9746 0.068794 0.364203 -2.871232
2007-01-16 07:48:25 51°14.145 2°55.408 15.9929 0.068794 0.364203 -2.871232
2007-01-16 07:48:30 51°14.155 2°55.4 15.9966 0.068794 0.36421 -2.871232
2007-01-16 07:48:35 51°14.164 2°55.392 16.0419 0.068794 0.36421 -2.871232
2007-01-16 07:48:40 51°14.173 2°55.383 16.0387 0.068794 0.36421 -2.871232
2007-01-16 07:48:46 51°14.185 2°55.372 16.0413 0.068794 0.364203 -2.871232
2007-01-16 07:48:50 51°14.193 2°55.364 16.0748 0.068897 0.364772 -2.871232
2007-01-16 07:48:55 51°14.203 2°55.354 16.0574 0.068897 0.364772 -2.871232
2007-01-16 07:49:00 51°14.213 2°55.342 16.0506 0.068794 0.36421 -2.871232
2007-01-16 07:49:06 51°14.224 2°55.328 15.9843 0.068794 0.364203 -2.871232
2007-01-16 07:49:10 51°14.232 2°55.318 15.9258 0.068794 0.364203 -2.871232
2007-01-16 07:49:15 51°14.242 2°55.305 15.9156 0.068794 0.364196 -2.871232
2007-01-16 07:49:20 51°14.252 2°55.291 15.8872 0.068897 0.364765 -2.871232
2007-01-16 07:49:25 51°14.262 2°55.277 15.9186 0.068897 0.364765 -2.871232
2007-01-16 07:49:30 51°14.273 2°55.263 15.9957 0.068794 0.364196 -2.871232
2007-01-16 07:49:35 51°14.283 2°55.248 15.9188 0.068794 0.364203 -2.871232
2007-01-16 07:49:40 51°14.293 2°55.232 15.8642 0.068897 0.364765 -2.871232
2007-01-16 07:49:45 51°14.302 2°55.217 15.9593 0.068897 0.364765 -2.871232
2007-01-16 07:49:50 51°14.312 2°55.2 15.8998 0.068897 0.364765 -2.871232
2007-01-16 07:49:55 51°14.322 2°55.184 15.9917 0.068897 0.364765 -2.871232
2007-01-16 07:50:00 51°14.331 2°55.167 15.7167 0.068897 0.364772 -2.871232
2007-01-16 07:50:05 51°14.341 2°55.151 15.862 0.068794 0.364196 -2.871232
2007-01-16 07:50:10 51°14.351 2°55.135 15.7533 0.068897 0.364758 -2.871232
2007-01-16 07:50:15 51°14.362 2°55.119 15.8891 0.068794 0.364196 -2.871232
2007-01-16 07:50:20 51°14.373 2°55.104 15.6634 0.068897 0.364758 -2.871232
2007-01-16 07:50:25 51°14.385 2°55.089 15.6176 0.068897 0.364758 -2.871232
2007-01-16 07:50:30 51°14.398 2°55.074 15.7657 0.068794 0.364196 -2.871232
2007-01-16 07:50:35 51°14.411 2°55.06 15.7831 0.068794 0.364203 -2.871232
2007-01-16 07:50:40 51°14.424 2°55.046 15.8813 0.068794 0.364217 -2.871232
2007-01-16 07:50:45 51°14.438 2°55.031 15.7763 0.068794 0.364238 -2.871232
2007-01-16 07:50:50 51°14.451 2°55.017 15.8689 0.068794 0.364231 -2.871232
2007-01-16 07:50:55 51°14.466 2°55.002 15.7691 0.068794 0.364231 -2.871232
2007-01-16 07:51:00 51°14.48 2°54.988 15.747 0.068794 0.364217 -2.871232
2007-01-16 07:51:05 51°14.494 2°54.974 15.7731 0.068897 0.364765 -2.871232
2007-01-16 07:51:10 51°14.509 2°54.961 15.8666 0.068794 0.364183 -2.871232
2007-01-16 07:51:15 51°14.523 2°54.946 15.8815 0.068794 0.36419 -2.871232
2007-01-16 07:51:20 51°14.538 2°54.932 15.9623 0.068897 0.364765 -2.871232
2007-01-16 07:51:25 51°14.551 2°54.916 15.9566 0.068897 0.364765 -2.871232
2007-01-16 07:51:30 51°14.564 2°54.899 15.9746 0.068897 0.364779 -2.871232
2007-01-16 07:51:35 51°14.576 2°54.881 15.9744 0.068897 0.3648 -2.871232
2007-01-16 07:51:40 51°14.588 2°54.861 15.9421 0.068897 0.364807 -2.871232
2007-01-16 07:51:45 51°14.599 2°54.841 15.9997 0.068897 0.364807 -2.871232
2007-01-16 07:51:50 51°14.608 2°54.821 16.0141 0.068897 0.364814 -2.871232
2007-01-16 07:51:55 51°14.617 2°54.799 15.9925 0.068897 0.364814 -2.871232
2007-01-16 07:52:00 51°14.624 2°54.776 15.9795 0.068897 0.364814 -2.871232
2007-01-16 07:52:05 51°14.63 2°54.752 15.9434 0.068897 0.364807 -2.871232
2007-01-16 07:52:10 51°14.635 2°54.728 16.0052 0.068794 0.364238 -2.871232
2007-01-16 07:52:15 51°14.639 2°54.704 16.0163 0.068897 0.364807 -2.871232
2007-01-16 07:52:20 51°14.641 2°54.679 16.0019 0.068794 0.364252 -2.871232
2007-01-16 07:52:25 51°14.643 2°54.654 15.9818 0.068794 0.364252 -2.871232
2007-01-16 07:52:30 51°14.643 2°54.63 15.9759 0.068794 0.364252 -2.871232
2007-01-16 07:52:35 51°14.642 2°54.605 15.922 0.068794 0.364252 -2.871232
2007-01-16 07:52:40 51°14.64 2°54.581 15.9501 0.068794 0.364252 -2.871232
2007-01-16 07:52:45 51°14.637 2°54.558 15.8739 0.068794 0.364252 -2.871232
2007-01-16 07:52:50 51°14.632 2°54.534 15.9301 0.068794 0.364258 -2.871232
2007-01-16 07:52:55 51°14.627 2°54.512 15.9663 0.068794 0.364258 -2.871232
2007-01-16 07:53:00 51°14.62 2°54.49 15.9932 0.068794 0.364265 -2.871232
2007-01-16 07:53:06 51°14.611 2°54.465 15.9447 0.068794 0.364279 -2.871232
2007-01-16 07:53:10 51°14.604 2°54.45 15.9522 0.068794 0.364286 -2.871232
2007-01-16 07:53:15 51°14.594 2°54.432 15.8842 0.068897 0.364855 -2.871232
2007-01-16 07:53:20 51°14.583 2°54.415 15.96 0.068794 0.364293 -2.871232
2007-01-16 07:53:25 51°14.572 2°54.4 15.8229 0.068794 0.364293 -2.871232
2007-01-16 07:53:30 51°14.56 2°54.386 15.8413 0.068794 0.364286 -2.871232
2007-01-16 07:53:35 51°14.547 2°54.374 15.8465 0.068794 0.364286 -2.871232
2007-01-16 07:53:40 51°14.533 2°54.362 15.6607 0.068794 0.364286 -2.871232
2007-01-16 07:53:45 51°14.52 2°54.351 15.5311 0.068897 0.364841 -2.871232
2007-01-16 07:53:50 51°14.507 2°54.338 15.5623 0.068794 0.364252 -2.871232
2007-01-16 07:53:55 51°14.496 2°54.322 15.611 0.068794 0.364252 -2.871232
2007-01-16 07:54:00 51°14.486 2°54.304 15.6088 0.068794 0.364245 -2.871232
2007-01-16 07:54:05 51°14.477 2°54.285 15.6654 0.068794 0.364252 -2.871232
2007-01-16 07:54:10 51°14.469 2°54.264 15.6746 0.068897 0.364827 -2.871232
2007-01-16 07:54:15 51°14.463 2°54.242 15.7076 0.068794 0.364272 -2.871232
2007-01-16 07:54:20 51°14.457 2°54.219 15.7188 0.068897 0.364855 -2.871232
2007-01-16 07:54:25 51°14.452 2°54.195 15.7333 0.068897 0.364855 -2.871232
2007-01-16 07:54:30 51°14.447 2°54.171 15.7534 0.068897 0.364869 -2.871232
2007-01-16 07:54:35 51°14.443 2°54.147 15.7474 0.068794 0.364327 -2.871232
2007-01-16 07:54:40 51°14.439 2°54.122 15.7712 0.068794 0.364334 -2.871232
2007-01-16 07:54:45 51°14.435 2°54.097 15.812 0.068794 0.364341 -2.871232
2007-01-16 07:54:50 51°14.431 2°54.072 15.7434 0.068794 0.364348 -2.871232
2007-01-16 07:54:55 51°14.427 2°54.046 15.8492 0.068794 0.364348 -2.871232
2007-01-16 07:55:00 51°14.423 2°54.021 15.7726 0.068794 0.364348 -2.871232
2007-01-16 07:55:05 51°14.419 2°53.995 15.8112 0.068794 0.364348 -2.871232
2007-01-16 07:55:10 51°14.414 2°53.97 15.7716 0.068897 0.364917 -2.871232
2007-01-16 07:55:15 51°14.41 2°53.944 15.8197 0.068794 0.364355 -2.871232
2007-01-16 07:55:20 51°14.405 2°53.919 15.7714 0.068794 0.364355 -2.871232
2007-01-16 07:55:25 51°14.4 2°53.893 15.798 0.068794 0.364355 -2.871232
2007-01-16 07:55:30 51°14.396 2°53.868 15.8358 0.068794 0.364355 -2.871232
2007-01-16 07:55:35 51°14.39 2°53.843 15.8837 0.068794 0.364362 -2.871232
2007-01-16 07:55:40 51°14.383 2°53.819 15.8859 0.068794 0.364382 -2.871232
2007-01-16 07:55:46 51°14.374 2°53.791 15.7927 0.068897 0.364958 -2.871232
2007-01-16 07:55:50 51°14.368 2°53.773 15.7619 0.068794 0.364382 -2.871232
2007-01-16 07:55:55 51°14.36 2°53.75 15.7304 0.068794 0.364382 -2.871232
2007-01-16 07:56:00 51°14.352 2°53.726 15.7516 0.068794 0.364362 -2.871232
2007-01-16 07:56:05 51°14.345 2°53.703 15.7508 0.068794 0.364355 -2.871232
2007-01-16 07:56:10 51°14.337 2°53.68 15.8882 0.068794 0.364348 -2.871232
2007-01-16 07:56:15 51°14.329 2°53.658 15.7989 0.068794 0.364376 -2.871232
2007-01-16 07:56:20 51°14.32 2°53.636 15.7953 0.068794 0.364376 -2.871232
2007-01-16 07:56:25 51°14.31 2°53.614 15.8246 0.068794 0.364376 -2.871232
2007-01-16 07:56:30 51°14.3 2°53.592 15.7715 0.068794 0.364396 -2.871232
2007-01-16 07:56:35 51°14.29 2°53.571 15.7608 0.068794 0.364382 -2.871232
2007-01-16 07:56:40 51°14.28 2°53.55 15.7187 0.068794 0.364376 -2.871232
2007-01-16 07:56:45 51°14.269 2°53.529 15.7862 0.068794 0.364376 -2.871232
2007-01-16 07:56:50 51°14.259 2°53.507 15.7841 0.068794 0.364369 -2.871232
2007-01-16 07:56:55 51°14.248 2°53.486 15.7373 0.068794 0.364369 -2.871232
2007-01-16 07:57:00 51°14.237 2°53.464 15.7699 0.068794 0.364376 -2.871232
2007-01-16 07:57:05 51°14.226 2°53.443 15.7531 0.068794 0.364369 -2.871232
2007-01-16 07:57:10 51°14.216 2°53.421 15.7897 0.068794 0.364369 -2.871232
2007-01-16 07:57:15 51°14.205 2°53.4 15.7993 0.068794 0.364376 -2.871232
2007-01-16 07:57:20 51°14.194 2°53.378 15.7697 0.068794 0.364382 -2.871232
2007-01-16 07:57:25 51°14.184 2°53.356 15.7965 0.068794 0.364382 -2.871232
2007-01-16 07:57:30 51°14.173 2°53.335 15.7253 0.068794 0.364396 -2.871232
2007-01-16 07:57:35 51°14.163 2°53.313 15.7828 0.068691 0.363834 -2.871232
2007-01-16 07:57:40 51°14.152 2°53.291 15.7793 0.068691 0.363848 -2.871232
2007-01-16 07:57:45 51°14.141 2°53.269 15.7881 0.068794 0.36441 -2.871232
2007-01-16 07:57:50 51°14.131 2°53.247 15.7617 0.068794 0.364424 -2.871232
2007-01-16 07:57:55 51°14.12 2°53.225 15.714 0.068794 0.364424 -2.871232
2007-01-16 07:58:00 51°14.109 2°53.203 15.756 0.068794 0.364417 -2.871232
2007-01-16 07:58:05 51°14.099 2°53.181 15.7336 0.068794 0.364424 -2.871232
2007-01-16 07:58:10 51°14.088 2°53.159 15.7895 0.068794 0.364431 -2.871232
2007-01-16 07:58:15 51°14.078 2°53.137 15.7564 0.068794 0.364438 -2.871232
2007-01-16 07:58:20 51°14.067 2°53.114 15.8062 0.068794 0.364438 -2.871232
2007-01-16 07:58:25 51°14.057 2°53.093 15.7376 0.068794 0.364438 -2.871232
2007-01-16 07:58:30 51°14.047 2°53.07 15.7858 0.068794 0.364445 -2.871232
2007-01-16 07:58:35 51°14.036 2°53.048 15.7836 0.068794 0.364451 -2.871232
2007-01-16 07:58:40 51°14.025 2°53.026 15.7818 0.068794 0.364458 -2.871232
2007-01-16 07:58:45 51°14.015 2°53.004 15.7872 0.068794 0.364472 -2.871232
2007-01-16 07:58:50 51°14.004 2°52.982 15.7742 0.068794 0.364472 -2.871232
2007-01-16 07:58:55 51°13.994 2°52.96 15.8045 0.068794 0.364472 -2.871232
2007-01-16 07:59:00 51°13.983 2°52.938 15.7776 0.068691 0.363924 -2.871232
2007-01-16 07:59:05 51°13.973 2°52.916 15.8148 0.068794 0.364479 -2.871232
2007-01-16 07:59:10 51°13.963 2°52.894 15.7737 0.068794 0.364486 -2.871232
2007-01-16 07:59:15 51°13.952 2°52.871 15.8006 0.068794 0.364479 -2.871232
2007-01-16 07:59:20 51°13.942 2°52.849 15.7732 0.068794 0.364493 -2.871232
2007-01-16 07:59:25 51°13.931 2°52.827 15.7956 0.068794 0.364493 -2.871232
2007-01-16 07:59:30 51°13.921 2°52.805 15.7882 0.068794 0.364493 -2.871232
2007-01-16 07:59:35 51°13.911 2°52.782 15.8029 0.068897 0.365069 -2.871232
2007-01-16 07:59:40 51°13.9 2°52.76 15.8025 0.068794 0.36452 -2.871232
2007-01-16 07:59:45 51°13.89 2°52.737 15.8117 0.068794 0.364527 -2.871232
2007-01-16 07:59:50 51°13.879 2°52.715 15.7544 0.068691 0.363986 -2.871232
2007-01-16 07:59:55 51°13.869 2°52.693 15.7732 0.068691 0.363986 -2.871232
2007-01-16 08:00:00 51°13.859 2°52.67 15.7969 0.068794 0.364555 -2.871232
2007-01-16 08:00:06 51°13.847 2°52.644 15.8117 0.068794 0.364569 -2.871232
2007-01-16 08:00:10 51°13.838 2°52.626 15.8 0.068794 0.364583 -2.871232
2007-01-16 08:00:15 51°13.828 2°52.604 15.8182 0.068794 0.364589 -2.871232
2007-01-16 08:00:20 51°13.818 2°52.581 15.7925 0.068794 0.364596 -2.871232
2007-01-16 08:00:26 51°13.805 2°52.555 15.748 0.068794 0.364596 -2.871232
2007-01-16 08:00:30 51°13.797 2°52.537 15.8019 0.068794 0.364603 -2.871232
2007-01-16 08:00:35 51°13.787 2°52.515 15.76 0.068691 0.364048 -2.871232
2007-01-16 08:00:40 51°13.776 2°52.493 15.8109 0.068691 0.364048 -2.871232
2007-01-16 08:00:45 51°13.766 2°52.471 15.7837 0.068691 0.364068 -2.871232
2007-01-16 08:00:50 51°13.755 2°52.449 15.755 0.068794 0.364631 -2.871232
2007-01-16 08:00:55 51°13.745 2°52.426 15.809 0.068794 0.364631 -2.871232
2007-01-16 08:01:00 51°13.735 2°52.404 15.7792 0.068794 0.364638 -2.871232
2007-01-16 08:01:05 51°13.725 2°52.381 15.7621 0.068691 0.364089 -2.871232
2007-01-16 08:01:10 51°13.715 2°52.359 15.8044 0.068691 0.364096 -2.871232
2007-01-16 08:01:15 51°13.705 2°52.336 15.8199 0.068691 0.364096 -2.871232
2007-01-16 08:01:20 51°13.695 2°52.313 15.8188 0.068794 0.364665 -2.871232
2007-01-16 08:01:25 51°13.685 2°52.29 15.7842 0.068794 0.364665 -2.871232
2007-01-16 08:01:30 51°13.675 2°52.267 15.8152 0.068794 0.364672 -2.871232
2007-01-16 08:01:35 51°13.666 2°52.244 15.8408 0.068691 0.36411 -2.871232
2007-01-16 08:01:40 51°13.656 2°52.221 15.7986 0.068691 0.364117 -2.871232
2007-01-16 08:01:45 51°13.646 2°52.198 15.8116 0.068794 0.364686 -2.871232
2007-01-16 08:01:50 51°13.636 2°52.175 15.7979 0.068691 0.36413 -2.871232
2007-01-16 08:01:55 51°13.627 2°52.152 15.8196 0.068691 0.36413 -2.871232
2007-01-16 08:02:00 51°13.617 2°52.13 15.8231 0.068691 0.364137 -2.871232
2007-01-16 08:02:05 51°13.607 2°52.107 15.801 0.068691 0.364144 -2.871232
2007-01-16 08:02:10 51°13.597 2°52.084 15.8174 0.068794 0.364714 -2.871232
2007-01-16 08:02:15 51°13.587 2°52.061 15.8023 0.068794 0.364721 -2.871232
2007-01-16 08:02:20 51°13.578 2°52.038 15.7901 0.068691 0.364165 -2.871232
2007-01-16 08:02:25 51°13.568 2°52.015 15.7744 0.068691 0.364165 -2.871232
2007-01-16 08:02:30 51°13.559 2°51.992 15.8287 0.068794 0.364728 -2.871232
2007-01-16 08:02:35 51°13.549 2°51.969 15.7574 0.068691 0.364179 -2.871232
2007-01-16 08:02:40 51°13.54 2°51.946 15.8066 0.068794 0.364734 -2.871232
2007-01-16 08:02:46 51°13.529 2°51.918 15.8095 0.068794 0.364741 -2.871232
2007-01-16 08:02:50 51°13.521 2°51.899 15.8316 0.068794 0.364741 -2.871232
2007-01-16 08:02:55 51°13.512 2°51.875 15.8004 0.068794 0.364741 -2.871232
2007-01-16 08:03:00 51°13.503 2°51.852 15.8384 0.068691 0.364186 -2.871232
2007-01-16 08:03:05 51°13.494 2°51.828 15.8386 0.068794 0.364762 -2.871232
2007-01-16 08:03:10 51°13.485 2°51.805 15.8462 0.068794 0.364762 -2.871232
2007-01-16 08:03:15 51°13.476 2°51.782 15.8131 0.068691 0.364199 -2.871232
2007-01-16 08:03:20 51°13.467 2°51.758 15.838 0.068691 0.364206 -2.871232
2007-01-16 08:03:25 51°13.457 2°51.735 15.7852 0.068691 0.364206 -2.871232
2007-01-16 08:03:30 51°13.448 2°51.711 15.8125 0.068691 0.364213 -2.871232
2007-01-16 08:03:35 51°13.439 2°51.688 15.8419 0.068691 0.364213 -2.871232
2007-01-16 08:03:40 51°13.43 2°51.665 15.8423 0.068794 0.364783 -2.871232
2007-01-16 08:03:45 51°13.421 2°51.641 15.8422 0.068691 0.36422 -2.871232
2007-01-16 08:03:50 51°13.412 2°51.618 15.8079 0.068691 0.364234 -2.871232
2007-01-16 08:03:55 51°13.402 2°51.594 15.8193 0.068691 0.364234 -2.871232
2007-01-16 08:04:00 51°13.393 2°51.571 15.8349 0.068691 0.364234 -2.871232
2007-01-16 08:04:05 51°13.384 2°51.548 15.842 0.068589 0.363678 -2.871232
2007-01-16 08:04:10 51°13.375 2°51.524 15.8503 0.068691 0.364241 -2.871232
2007-01-16 08:04:15 51°13.366 2°51.501 15.8428 0.068691 0.364255 -2.871232
2007-01-16 08:04:20 51°13.357 2°51.477 15.8525 0.068691 0.364261 -2.871232
2007-01-16 08:04:26 51°13.346 2°51.449 15.8013 0.068691 0.364261 -2.871232
2007-01-16 08:04:30 51°13.338 2°51.431 15.844 0.068691 0.364268 -2.871232
2007-01-16 08:04:35 51°13.329 2°51.407 15.8124 0.068691 0.364275 -2.871232
2007-01-16 08:04:40 51°13.321 2°51.383 15.8151 0.068589 0.363719 -2.871232
2007-01-16 08:04:46 51°13.31 2°51.354 15.8614 0.068691 0.364289 -2.871232
2007-01-16 08:04:50 51°13.303 2°51.336 15.8079 0.068691 0.364303 -2.871232
2007-01-16 08:04:55 51°13.295 2°51.312 15.8528 0.068691 0.364303 -2.871232
2007-01-16 08:05:00 51°13.286 2°51.288 15.8555 0.068691 0.36431 -2.871232
2007-01-16 08:05:06 51°13.276 2°51.259 15.843 0.068691 0.364317 -2.871232
2007-01-16 08:05:10 51°13.269 2°51.24 15.8085 0.068691 0.36433 -2.871232
2007-01-16 08:05:15 51°13.26 2°51.216 15.8579 0.068691 0.364337 -2.871232
2007-01-16 08:05:20 51°13.252 2°51.192 15.8153 0.068691 0.364344 -2.871232
2007-01-16 08:05:25 51°13.244 2°51.168 15.8599 0.068691 0.364344 -2.871232
2007-01-16 08:05:30 51°13.235 2°51.144 15.8408 0.068691 0.364358 -2.871232
2007-01-16 08:05:35 51°13.227 2°51.12 15.8575 0.068589 0.363795 -2.871232
2007-01-16 08:05:40 51°13.218 2°51.096 15.825 0.068691 0.364372 -2.871232
2007-01-16 08:05:45 51°13.21 2°51.072 15.8503 0.068691 0.364372 -2.871232
2007-01-16 08:05:50 51°13.201 2°51.048 15.8639 0.068589 0.363816 -2.871232
2007-01-16 08:05:55 51°13.192 2°51.024 15.8246 0.068589 0.363816 -2.871232
2007-01-16 08:06:00 51°13.184 2°51 15.8655 0.068691 0.364393 -2.871232
2007-01-16 08:06:05 51°13.175 2°50.976 15.8484 0.068589 0.363837 -2.871232
2007-01-16 08:06:10 51°13.167 2°50.952 15.8533 0.068691 0.3644 -2.871232
2007-01-16 08:06:15 51°13.158 2°50.928 15.8179 0.068691 0.364413 -2.871232
2007-01-16 08:06:20 51°13.149 2°50.904 15.8427 0.068589 0.36385 -2.871232
2007-01-16 08:06:25 51°13.141 2°50.88 15.836 0.068589 0.36385 -2.871232
2007-01-16 08:06:30 51°13.132 2°50.856 15.8234 0.068691 0.364427 -2.871232
2007-01-16 08:06:35 51°13.124 2°50.832 15.8549 0.068691 0.364427 -2.871232
2007-01-16 08:06:40 51°13.116 2°50.808 15.8323 0.068691 0.364441 -2.871232
2007-01-16 08:06:45 51°13.107 2°50.783 15.8571 0.068589 0.363885 -2.871232
2007-01-16 08:06:50 51°13.099 2°50.759 15.8304 0.068691 0.364455 -2.871232
2007-01-16 08:06:55 51°13.09 2°50.735 15.8676 0.068691 0.364455 -2.871232
2007-01-16 08:07:00 51°13.082 2°50.711 15.8394 0.068691 0.364469 -2.871232
2007-01-16 08:07:06 51°13.072 2°50.682 15.8768 0.068691 0.364469 -2.871232
2007-01-16 08:07:10 51°13.065 2°50.663 15.8434 0.068589 0.363919 -2.871232
2007-01-16 08:07:15 51°13.057 2°50.639 15.8892 0.068691 0.364489 -2.871232
2007-01-16 08:07:20 51°13.048 2°50.615 15.8604 0.068589 0.363926 -2.871232
2007-01-16 08:07:26 51°13.038 2°50.586 15.8751 0.068589 0.363926 -2.871232
2007-01-16 08:07:30 51°13.031 2°50.567 15.8374 0.068589 0.36394 -2.871232
2007-01-16 08:07:35 51°13.023 2°50.543 15.8662 0.068589 0.36394 -2.871232
2007-01-16 08:07:40 51°13.014 2°50.519 15.8815 0.068589 0.363947 -2.871232
2007-01-16 08:07:45 51°13.005 2°50.495 15.8529 0.068589 0.363961 -2.871232
2007-01-16 08:07:50 51°12.997 2°50.471 15.869 0.068691 0.364531 -2.871232
2007-01-16 08:07:55 51°12.989 2°50.447 15.8728 0.068691 0.364531 -2.871232
2007-01-16 08:08:00 51°12.98 2°50.423 15.8257 0.068589 0.363974 -2.871232
2007-01-16 08:08:05 51°12.972 2°50.399 15.8854 0.068589 0.363981 -2.871232
2007-01-16 08:08:10 51°12.963 2°50.375 15.8782 0.068691 0.364558 -2.871232
2007-01-16 08:08:15 51°12.954 2°50.351 15.87 0.068589 0.363995 -2.871232
2007-01-16 08:08:20 51°12.946 2°50.327 15.8491 0.068589 0.364002 -2.871232
2007-01-16 08:08:25 51°12.937 2°50.303 15.8674 0.068589 0.364002 -2.871232
2007-01-16 08:08:30 51°12.929 2°50.279 15.8886 0.068589 0.364009 -2.871232
2007-01-16 08:08:35 51°12.921 2°50.255 15.8672 0.068691 0.364579 -2.871232
2007-01-16 08:08:40 51°12.912 2°50.23 15.8872 0.068691 0.364586 -2.871232
2007-01-16 08:08:45 51°12.904 2°50.206 15.8844 0.068589 0.36403 -2.871232
2007-01-16 08:08:50 51°12.895 2°50.182 15.8561 0.068589 0.364044 -2.871232
2007-01-16 08:08:55 51°12.887 2°50.158 15.8792 0.068589 0.364044 -2.871232
2007-01-16 08:09:00 51°12.878 2°50.134 15.8914 0.068589 0.364044 -2.871232
2007-01-16 08:09:06 51°12.868 2°50.106 15.873 0.068691 0.364621 -2.871232
2007-01-16 08:09:10 51°12.861 2°50.087 15.8615 0.068589 0.364064 -2.871232
2007-01-16 08:09:15 51°12.852 2°50.063 15.8822 0.068589 0.364064 -2.871232
2007-01-16 08:09:20 51°12.844 2°50.039 15.8905 0.068589 0.364078 -2.871232
2007-01-16 08:09:25 51°12.835 2°50.015 15.9042 0.068589 0.364078 -2.871232
2007-01-16 08:09:30 51°12.826 2°49.991 15.8906 0.068589 0.364078 -2.871232
2007-01-16 08:09:35 51°12.818 2°49.967 15.8752 0.068589 0.364092 -2.871232
2007-01-16 08:09:40 51°12.809 2°49.943 15.8814 0.068589 0.364099 -2.871232
2007-01-16 08:09:45 51°12.801 2°49.919 15.8873 0.068589 0.364099 -2.871232
2007-01-16 08:09:50 51°12.792 2°49.895 15.8509 0.068589 0.364113 -2.871232
2007-01-16 08:09:55 51°12.784 2°49.871 15.9084 0.068589 0.364113 -2.871232
2007-01-16 08:10:00 51°12.775 2°49.847 15.8778 0.068589 0.364119 -2.871232
2007-01-16 08:10:05 51°12.767 2°49.823 15.8698 0.068589 0.364126 -2.871232
2007-01-16 08:10:10 51°12.758 2°49.799 15.9044 0.068589 0.364133 -2.871232
2007-01-16 08:10:15 51°12.75 2°49.775 15.8744 0.068589 0.36414 -2.871232
2007-01-16 08:10:20 51°12.741 2°49.751 15.8964 0.068589 0.364147 -2.871232
2007-01-16 08:10:25 51°12.732 2°49.727 15.9007 0.068589 0.364147 -2.871232
2007-01-16 08:10:30 51°12.724 2°49.703 15.9034 0.068486 0.363591 -2.871232
2007-01-16 08:10:35 51°12.716 2°49.68 15.8789 0.068589 0.364161 -2.871232
2007-01-16 08:10:40 51°12.707 2°49.656 15.9072 0.068589 0.364168 -2.871232
2007-01-16 08:10:45 51°12.699 2°49.632 15.8849 0.068691 0.364738 -2.871232
2007-01-16 08:10:50 51°12.69 2°49.608 15.912 0.068589 0.364182 -2.871232
2007-01-16 08:10:55 51°12.682 2°49.584 15.9098 0.068589 0.364182 -2.871232
2007-01-16 08:11:00 51°12.673 2°49.56 15.8986 0.068589 0.364195 -2.871232
2007-01-16 08:11:05 51°12.665 2°49.536 15.9154 0.068589 0.364195 -2.871232
2007-01-16 08:11:10 51°12.656 2°49.512 15.893 0.068486 0.363646 -2.871232
2007-01-16 08:11:15 51°12.648 2°49.488 15.909 0.068589 0.364209 -2.871232
2007-01-16 08:11:20 51°12.639 2°49.464 15.874 0.068589 0.364223 -2.871232
2007-01-16 08:11:25 51°12.631 2°49.44 15.9216 0.068589 0.364223 -2.871232
2007-01-16 08:11:30 51°12.622 2°49.416 15.887 0.068589 0.36423 -2.871232
2007-01-16 08:11:35 51°12.614 2°49.392 15.9176 0.068589 0.364237 -2.871232
2007-01-16 08:11:40 51°12.605 2°49.368 15.8806 0.068486 0.36368 -2.871232
2007-01-16 08:11:46 51°12.595 2°49.339 15.9178 0.068486 0.363687 -2.871232
2007-01-16 08:11:50 51°12.588 2°49.32 15.8832 0.068589 0.364258 -2.871232
2007-01-16 08:11:55 51°12.58 2°49.296 15.8865 0.068589 0.364258 -2.871232
2007-01-16 08:12:00 51°12.572 2°49.272 15.8956 0.068589 0.364265 -2.871232
2007-01-16 08:12:05 51°12.564 2°49.248 15.9267 0.068486 0.363708 -2.871232
2007-01-16 08:12:10 51°12.555 2°49.224 15.8902 0.068486 0.363729 -2.871232
2007-01-16 08:12:15 51°12.547 2°49.2 15.9284 0.068486 0.363729 -2.871232
2007-01-16 08:12:20 51°12.538 2°49.176 15.9002 0.068589 0.364306 -2.871232
2007-01-16 08:12:25 51°12.53 2°49.152 15.9407 0.068589 0.364306 -2.871232
2007-01-16 08:12:30 51°12.521 2°49.129 15.9059 0.068486 0.363749 -2.871232
2007-01-16 08:12:35 51°12.513 2°49.105 15.9043 0.068486 0.363756 -2.871232
2007-01-16 08:12:40 51°12.504 2°49.081 15.9341 0.068589 0.364327 -2.871232
2007-01-16 08:12:45 51°12.496 2°49.057 15.9261 0.068589 0.364334 -2.871232
2007-01-16 08:12:50 51°12.487 2°49.033 15.8823 0.068589 0.364341 -2.871232
2007-01-16 08:12:55 51°12.479 2°49.009 15.9109 0.068589 0.364341 -2.871232
2007-01-16 08:13:00 51°12.47 2°48.986 15.9245 0.068589 0.364348 -2.871232
2007-01-16 08:13:05 51°12.462 2°48.962 15.9123 0.068486 0.363798 -2.871232
2007-01-16 08:13:10 51°12.453 2°48.938 15.9108 0.068486 0.363805 -2.871232
2007-01-16 08:13:15 51°12.444 2°48.914 15.9058 0.068589 0.364375 -2.871232
2007-01-16 08:13:20 51°12.436 2°48.891 15.895 0.068486 0.363818 -2.871232
2007-01-16 08:13:25 51°12.427 2°48.867 15.9433 0.068486 0.363818 -2.871232
2007-01-16 08:13:30 51°12.419 2°48.843 15.8864 0.068486 0.363832 -2.871232
2007-01-16 08:13:35 51°12.41 2°48.819 15.927 0.068589 0.364403 -2.871232
2007-01-16 08:13:40 51°12.402 2°48.795 15.9212 0.068589 0.36441 -2.871232
2007-01-16 08:13:45 51°12.393 2°48.771 15.9378 0.068486 0.363853 -2.871232
2007-01-16 08:13:50 51°12.385 2°48.748 15.9015 0.068589 0.364431 -2.871232
2007-01-16 08:13:55 51°12.376 2°48.724 15.9343 0.068589 0.364431 -2.871232
2007-01-16 08:14:00 51°12.368 2°48.7 15.9125 0.068486 0.363867 -2.871232
2007-01-16 08:14:06 51°12.358 2°48.671 15.921 0.068486 0.363881 -2.871232
2007-01-16 08:14:10 51°12.351 2°48.652 15.9216 0.068486 0.363894 -2.871232
2007-01-16 08:14:15 51°12.343 2°48.628 15.9439 0.068589 0.364465 -2.871232
2007-01-16 08:14:20 51°12.335 2°48.604 15.9382 0.068486 0.363908 -2.871232
2007-01-16 08:14:26 51°12.325 2°48.575 15.9502 0.068486 0.363908 -2.871232
2007-01-16 08:14:30 51°12.318 2°48.556 15.8949 0.068486 0.363922 -2.871232
2007-01-16 08:14:35 51°12.31 2°48.532 15.95 0.068486 0.363922 -2.871232
2007-01-16 08:14:40 51°12.301 2°48.508 15.9576 0.068486 0.363943 -2.871232
2007-01-16 08:14:45 51°12.293 2°48.484 15.9664 0.068486 0.363943 -2.871232
2007-01-16 08:14:50 51°12.284 2°48.46 15.9248 0.068486 0.363957 -2.871232
2007-01-16 08:14:55 51°12.276 2°48.436 15.9315 0.068486 0.363957 -2.871232
2007-01-16 08:15:00 51°12.268 2°48.412 15.9194 0.068486 0.363964 -2.871232
2007-01-16 08:15:05 51°12.26 2°48.387 15.9272 0.068486 0.36397 -2.871232
2007-01-16 08:15:10 51°12.253 2°48.363 15.9485 0.068486 0.363977 -2.871232
2007-01-16 08:15:15 51°12.245 2°48.338 15.9434 0.068486 0.363998 -2.871232
2007-01-16 08:15:20 51°12.237 2°48.314 15.9156 0.068486 0.363998 -2.871232
2007-01-16 08:15:25 51°12.23 2°48.289 15.9548 0.068486 0.363998 -2.871232
2007-01-16 08:15:30 51°12.222 2°48.264 15.928 0.068486 0.364012 -2.871232
2007-01-16 08:15:35 51°12.215 2°48.239 15.9326 0.068486 0.364026 -2.871232
2007-01-16 08:15:40 51°12.207 2°48.215 15.9521 0.068486 0.364033 -2.871232
2007-01-16 08:15:45 51°12.2 2°48.19 15.9448 0.068486 0.364047 -2.871232
2007-01-16 08:15:50 51°12.192 2°48.165 15.9622 0.068486 0.364053 -2.871232
2007-01-16 08:15:55 51°12.184 2°48.141 15.9578 0.068486 0.364053 -2.871232
2007-01-16 08:16:00 51°12.177 2°48.116 15.9358 0.068486 0.364067 -2.871232
2007-01-16 08:16:06 51°12.168 2°48.087 15.9171 0.068486 0.364074 -2.871232
2007-01-16 08:16:10 51°12.162 2°48.067 15.9567 0.068383 0.363517 -2.871232
2007-01-16 08:16:15 51°12.155 2°48.042 15.9405 0.068486 0.364088 -2.871232
2007-01-16 08:16:20 51°12.147 2°48.018 15.9676 0.068486 0.364102 -2.871232
2007-01-16 08:16:26 51°12.138 2°47.988 15.954 0.068486 0.364102 -2.871232
2007-01-16 08:16:30 51°12.132 2°47.968 15.961 0.068383 0.363545 -2.871232
2007-01-16 08:16:35 51°12.125 2°47.944 15.9533 0.068383 0.363551 -2.871232
2007-01-16 08:16:40 51°12.117 2°47.919 15.9676 0.068383 0.363558 -2.871232
2007-01-16 08:16:45 51°12.11 2°47.895 15.9572 0.068486 0.364136 -2.871232
2007-01-16 08:16:50 51°12.102 2°47.87 15.9773 0.068486 0.36415 -2.871232
2007-01-16 08:16:55 51°12.095 2°47.846 15.9159 0.068486 0.36415 -2.871232
2007-01-16 08:17:00 51°12.087 2°47.821 15.9602 0.068486 0.364157 -2.871232
2007-01-16 08:17:05 51°12.08 2°47.796 15.9359 0.068486 0.364164 -2.871232
2007-01-16 08:17:10 51°12.072 2°47.772 15.9557 0.068383 0.363607 -2.871232
2007-01-16 08:17:15 51°12.065 2°47.747 15.973 0.068383 0.363621 -2.871232
2007-01-16 08:17:20 51°12.057 2°47.722 15.977 0.068383 0.363627 -2.871232
2007-01-16 08:17:25 51°12.05 2°47.698 15.9633 0.068383 0.363627 -2.871232
2007-01-16 08:17:30 51°12.042 2°47.673 15.9671 0.068383 0.363641 -2.871232
2007-01-16 08:17:35 51°12.035 2°47.648 15.9786 0.068486 0.364213 -2.871232
2007-01-16 08:17:40 51°12.027 2°47.624 15.9657 0.068383 0.363662 -2.871232
2007-01-16 08:17:45 51°12.02 2°47.599 15.9691 0.068486 0.364233 -2.871232
2007-01-16 08:17:50 51°12.012 2°47.575 15.9668 0.068383 0.363676 -2.871232
2007-01-16 08:17:55 51°12.004 2°47.55 15.9392 0.068383 0.363676 -2.871232
2007-01-16 08:18:00 51°11.997 2°47.526 15.9708 0.068486 0.364247 -2.871232
2007-01-16 08:18:05 51°11.99 2°47.5 15.9747 0.068486 0.364254 -2.871232
2007-01-16 08:18:10 51°11.983 2°47.475 15.968 0.068486 0.364268 -2.871232
2007-01-16 08:18:15 51°11.976 2°47.45 15.9823 0.068383 0.363717 -2.871232
2007-01-16 08:18:20 51°11.969 2°47.425 15.9885 0.068383 0.363724 -2.871232
2007-01-16 08:18:25 51°11.962 2°47.4 15.9803 0.068383 0.363724 -2.871232
2007-01-16 08:18:30 51°11.955 2°47.375 15.9611 0.068383 0.363738 -2.871232
2007-01-16 08:18:35 51°11.949 2°47.35 15.9776 0.068383 0.363745 -2.871232
2007-01-16 08:18:40 51°11.941 2°47.325 15.97 0.068383 0.363759 -2.871232
2007-01-16 08:18:46 51°11.933 2°47.294 15.9981 0.068383 0.363766 -2.871232
2007-01-16 08:18:50 51°11.928 2°47.274 15.9889 0.068486 0.364337 -2.871232
2007-01-16 08:18:55 51°11.921 2°47.249 15.9943 0.068486 0.364337 -2.871232
2007-01-16 08:19:00 51°11.914 2°47.224 15.9651 0.068383 0.363787 -2.871232
2007-01-16 08:19:05 51°11.907 2°47.199 15.9922 0.068383 0.363787 -2.871232
2007-01-16 08:19:10 51°11.9 2°47.174 15.9912 0.06828 0.363236 -2.871232
2007-01-16 08:19:15 51°11.893 2°47.149 15.989 0.068383 0.363807 -2.871232
2007-01-16 08:19:20 51°11.886 2°47.124 15.9724 0.068486 0.364386 -2.871232
2007-01-16 08:19:25 51°11.879 2°47.099 15.9827 0.068486 0.364386 -2.871232
2007-01-16 08:19:30 51°11.872 2°47.074 15.9697 0.068383 0.363828 -2.871232
2007-01-16 08:19:35 51°11.865 2°47.048 15.9964 0.068383 0.363842 -2.871232
2007-01-16 08:19:40 51°11.858 2°47.023 16.002 0.06828 0.363284 -2.871232
2007-01-16 08:19:45 51°11.851 2°46.998 15.9995 0.068383 0.363856 -2.871232
2007-01-16 08:19:50 51°11.844 2°46.973 16.0076 0.068383 0.36387 -2.871232
2007-01-16 08:19:55 51°11.837 2°46.948 15.9775 0.068383 0.36387 -2.871232
2007-01-16 08:20:00 51°11.83 2°46.923 15.9822 0.068383 0.363877 -2.871232
2007-01-16 08:20:05 51°11.823 2°46.898 16.0044 0.068383 0.363883 -2.871232
2007-01-16 08:20:10 51°11.816 2°46.873 16.0137 0.068383 0.363897 -2.871232
2007-01-16 08:20:15 51°11.809 2°46.848 16.0057 0.068383 0.363904 -2.871232
2007-01-16 08:20:20 51°11.802 2°46.822 16.0092 0.068383 0.363918 -2.871232
2007-01-16 08:20:26 51°11.794 2°46.792 16.0053 0.068383 0.363918 -2.871232
2007-01-16 08:20:30 51°11.789 2°46.772 16.0327 0.068383 0.363925 -2.871232
2007-01-16 08:20:35 51°11.782 2°46.747 16.0125 0.068383 0.363939 -2.871232
2007-01-16 08:20:40 51°11.775 2°46.722 16.0009 0.068383 0.363946 -2.871232
2007-01-16 08:20:46 51°11.766 2°46.692 16.0225 0.068383 0.363953 -2.871232
2007-01-16 08:20:50 51°11.76 2°46.672 15.9719 0.06828 0.363395 -2.871232
2007-01-16 08:20:55 51°11.753 2°46.647 16.0133 0.06828 0.363395 -2.871232
2007-01-16 08:21:00 51°11.746 2°46.622 15.9861 0.06828 0.363402 -2.871232
2007-01-16 08:21:05 51°11.739 2°46.597 15.9941 0.068383 0.363973 -2.871232
2007-01-16 08:21:10 51°11.732 2°46.572 15.9796 0.068383 0.363987 -2.871232
2007-01-16 08:21:15 51°11.726 2°46.547 16.0249 0.06828 0.363436 -2.871232
2007-01-16 08:21:20 51°11.718 2°46.522 15.9797 0.068383 0.364008 -2.871232
2007-01-16 08:21:25 51°11.712 2°46.497 16.0287 0.068383 0.364008 -2.871232
2007-01-16 08:21:30 51°11.704 2°46.472 16.0067 0.068383 0.364015 -2.871232
2007-01-16 08:21:35 51°11.697 2°46.447 16.0109 0.06828 0.363457 -2.871232
2007-01-16 08:21:40 51°11.69 2°46.422 15.9843 0.06828 0.363464 -2.871232
2007-01-16 08:21:45 51°11.683 2°46.397 16.0135 0.06828 0.363478 -2.871232
2007-01-16 08:21:50 51°11.676 2°46.372 16.0336 0.06828 0.363492 -2.871232
2007-01-16 08:21:55 51°11.669 2°46.347 16.0059 0.06828 0.363492 -2.871232
2007-01-16 08:22:00 51°11.662 2°46.322 16.0165 0.06828 0.363492 -2.871232
2007-01-16 08:22:05 51°11.656 2°46.297 16.0334 0.068383 0.364064 -2.871232
2007-01-16 08:22:10 51°11.649 2°46.272 15.9987 0.06828 0.363512 -2.871232
2007-01-16 08:22:15 51°11.642 2°46.247 16.0303 0.06828 0.363519 -2.871232
2007-01-16 08:22:20 51°11.635 2°46.222 16.0157 0.06828 0.363533 -2.871232
2007-01-16 08:22:25 51°11.628 2°46.197 16.0318 0.06828 0.363533 -2.871232
2007-01-16 08:22:30 51°11.621 2°46.172 16.0377 0.068383 0.364105 -2.871232
2007-01-16 08:22:35 51°11.614 2°46.147 16.0148 0.06828 0.363547 -2.871232
2007-01-16 08:22:40 51°11.608 2°46.122 16.0337 0.06828 0.363561 -2.871232
2007-01-16 08:22:45 51°11.601 2°46.097 16.0058 0.06828 0.363568 -2.871232
2007-01-16 08:22:50 51°11.594 2°46.072 16.0363 0.06828 0.363582 -2.871232
2007-01-16 08:22:55 51°11.587 2°46.047 15.9847 0.06828 0.363582 -2.871232
2007-01-16 08:23:00 51°11.58 2°46.022 16.0417 0.06828 0.363582 -2.871232
2007-01-16 08:23:06 51°11.572 2°45.992 16.0043 0.06828 0.363595 -2.871232
2007-01-16 08:23:10 51°11.566 2°45.972 16.0392 0.068383 0.364168 -2.871232
2007-01-16 08:23:15 51°11.56 2°45.947 16.0368 0.06828 0.363609 -2.871232
2007-01-16 08:23:20 51°11.553 2°45.922 16.0286 0.06828 0.363623 -2.871232
2007-01-16 08:23:26 51°11.545 2°45.892 16.0358 0.06828 0.363623 -2.871232
2007-01-16 08:23:30 51°11.539 2°45.872 16.029 0.06828 0.363637 -2.871232
2007-01-16 08:23:35 51°11.532 2°45.847 16.0149 0.06828 0.363644 -2.871232
2007-01-16 08:23:40 51°11.525 2°45.822 16.0445 0.06828 0.363651 -2.871232
2007-01-16 08:23:45 51°11.519 2°45.798 16.0418 0.06828 0.363665 -2.871232
2007-01-16 08:23:50 51°11.512 2°45.773 16.04 0.06828 0.363672 -2.871232
2007-01-16 08:23:55 51°11.505 2°45.748 16.0504 0.06828 0.363672 -2.871232
2007-01-16 08:24:00 51°11.498 2°45.723 16.037 0.06828 0.363679 -2.871232
2007-01-16 08:24:05 51°11.491 2°45.698 16.0304 0.06828 0.363692 -2.871232
2007-01-16 08:24:10 51°11.484 2°45.673 16.0219 0.06828 0.363699 -2.871232
2007-01-16 08:24:15 51°11.477 2°45.648 16.0153 0.06828 0.363713 -2.871232
2007-01-16 08:24:20 51°11.47 2°45.623 16.0483 0.06828 0.36372 -2.871232
2007-01-16 08:24:25 51°11.463 2°45.599 16.0337 0.06828 0.36372 -2.871232
2007-01-16 08:24:30 51°11.456 2°45.573 16.0551 0.06828 0.363727 -2.871232
2007-01-16 08:24:35 51°11.449 2°45.549 16.0363 0.06828 0.363741 -2.871232
2007-01-16 08:24:40 51°11.442 2°45.524 16.0519 0.06828 0.363748 -2.871232
2007-01-16 08:24:46 51°11.434 2°45.494 16.0327 0.06828 0.363762 -2.871232
2007-01-16 08:24:50 51°11.429 2°45.474 16.0424 0.06828 0.363769 -2.871232
2007-01-16 08:24:55 51°11.422 2°45.45 16.0541 0.06828 0.363769 -2.871232
2007-01-16 08:25:00 51°11.415 2°45.425 16.0567 0.06828 0.363776 -2.871232
2007-01-16 08:25:06 51°11.406 2°45.395 16.0209 0.06828 0.363789 -2.871232
2007-01-16 08:25:10 51°11.4 2°45.375 16.0348 0.06828 0.363803 -2.871232
2007-01-16 08:25:15 51°11.393 2°45.35 16.0414 0.06828 0.36381 -2.871232
2007-01-16 08:25:20 51°11.386 2°45.326 16.0506 0.06828 0.363824 -2.871232
2007-01-16 08:25:26 51°11.378 2°45.296 16.0641 0.06828 0.363824 -2.871232
2007-01-16 08:25:30 51°11.373 2°45.276 16.0587 0.068177 0.363266 -2.871232
2007-01-16 08:25:35 51°11.366 2°45.251 16.0419 0.068177 0.363272 -2.871232
2007-01-16 08:25:40 51°11.359 2°45.226 16.0692 0.068177 0.363286 -2.871232
2007-01-16 08:25:45 51°11.352 2°45.201 16.0556 0.06828 0.363866 -2.871232
2007-01-16 08:25:50 51°11.345 2°45.176 16.066 0.068177 0.363307 -2.871232
2007-01-16 08:25:55 51°11.338 2°45.152 16.0443 0.068177 0.363307 -2.871232
2007-01-16 08:26:00 51°11.331 2°45.127 16.0588 0.068177 0.363314 -2.871232
2007-01-16 08:26:05 51°11.324 2°45.102 16.0628 0.068177 0.363328 -2.871232
2007-01-16 08:26:10 51°11.317 2°45.077 16.075 0.068177 0.363335 -2.871232
2007-01-16 08:26:15 51°11.31 2°45.052 16.0718 0.068177 0.363349 -2.871232
2007-01-16 08:26:20 51°11.303 2°45.027 16.0776 0.068177 0.363356 -2.871232
2007-01-16 08:26:25 51°11.296 2°45.003 16.0491 0.068177 0.363356 -2.871232
2007-01-16 08:26:30 51°11.289 2°44.978 16.0569 0.068177 0.363369 -2.871232
2007-01-16 08:26:35 51°11.282 2°44.953 16.0582 0.068177 0.363376 -2.871232
2007-01-16 08:26:40 51°11.276 2°44.929 16.06 0.068177 0.36339 -2.871232
2007-01-16 08:26:45 51°11.269 2°44.904 16.0844 0.06828 0.363963 -2.871232
2007-01-16 08:26:50 51°11.262 2°44.879 16.0586 0.06828 0.363977 -2.871232
2007-01-16 08:26:55 51°11.255 2°44.854 16.0743 0.06828 0.363977 -2.871232
2007-01-16 08:27:00 51°11.248 2°44.83 16.0655 0.068177 0.363425 -2.871232
2007-01-16 08:27:05 51°11.241 2°44.805 16.0831 0.068177 0.363425 -2.871232
2007-01-16 08:27:10 51°11.234 2°44.78 16.0708 0.068177 0.363446 -2.871232
2007-01-16 08:27:15 51°11.228 2°44.755 16.0869 0.068177 0.363453 -2.871232
2007-01-16 08:27:20 51°11.221 2°44.731 16.0844 0.068177 0.363466 -2.871232
2007-01-16 08:27:26 51°11.212 2°44.701 16.0605 0.068177 0.363466 -2.871232
2007-01-16 08:27:30 51°11.207 2°44.681 16.0824 0.068177 0.363473 -2.871232
2007-01-16 08:27:35 51°11.2 2°44.656 16.0848 0.068177 0.363487 -2.871232
2007-01-16 08:27:40 51°11.193 2°44.632 16.1093 0.068177 0.363494 -2.871232
2007-01-16 08:27:46 51°11.185 2°44.602 16.0695 0.068177 0.363508 -2.871232
2007-01-16 08:27:50 51°11.179 2°44.582 16.0567 0.068177 0.363515 -2.871232
2007-01-16 08:27:55 51°11.173 2°44.557 16.1002 0.068177 0.363515 -2.871232
2007-01-16 08:28:00 51°11.166 2°44.533 16.0693 0.068177 0.363522 -2.871232
2007-01-16 08:28:06 51°11.158 2°44.503 16.0824 0.068177 0.363536 -2.871232
2007-01-16 08:28:10 51°11.152 2°44.483 16.0975 0.068177 0.36355 -2.871232
2007-01-16 08:28:15 51°11.145 2°44.459 16.0638 0.068177 0.363557 -2.871232
2007-01-16 08:28:20 51°11.139 2°44.434 16.0787 0.068177 0.36357 -2.871232
2007-01-16 08:28:25 51°11.131 2°44.409 16.071 0.068177 0.36357 -2.871232
2007-01-16 08:28:30 51°11.125 2°44.384 16.1006 0.068177 0.363577 -2.871232
2007-01-16 08:28:35 51°11.118 2°44.36 16.0982 0.068177 0.363591 -2.871232
2007-01-16 08:28:40 51°11.111 2°44.335 16.0935 0.068177 0.363598 -2.871232
2007-01-16 08:28:45 51°11.104 2°44.31 16.0903 0.068177 0.363605 -2.871232
2007-01-16 08:28:50 51°11.097 2°44.286 16.1004 0.068177 0.363612 -2.871232
2007-01-16 08:28:55 51°11.09 2°44.261 16.0855 0.068177 0.363612 -2.871232
2007-01-16 08:29:00 51°11.083 2°44.236 16.1124 0.068074 0.36306 -2.871232
2007-01-16 08:29:06 51°11.075 2°44.206 16.096 0.068177 0.36364 -2.871232
2007-01-16 08:29:10 51°11.07 2°44.187 16.0901 0.068177 0.363647 -2.871232
2007-01-16 08:29:15 51°11.063 2°44.162 16.076 0.068177 0.363661 -2.871232
2007-01-16 08:29:20 51°11.056 2°44.137 16.1065 0.068074 0.363101 -2.871232
2007-01-16 08:29:25 51°11.049 2°44.112 16.0958 0.068074 0.363101 -2.871232
2007-01-16 08:29:30 51°11.043 2°44.087 16.1197 0.068177 0.363675 -2.871232
2007-01-16 08:29:35 51°11.036 2°44.063 16.0804 0.068177 0.363688 -2.871232
2007-01-16 08:29:40 51°11.029 2°44.038 16.1187 0.068074 0.363129 -2.871232
2007-01-16 08:29:45 51°11.022 2°44.013 16.1149 0.068074 0.363143 -2.871232
2007-01-16 08:29:50 51°11.015 2°43.988 16.1218 0.068074 0.36315 -2.871232
2007-01-16 08:29:55 51°11.008 2°43.963 16.1028 0.068074 0.36315 -2.871232
2007-01-16 08:30:00 51°11.002 2°43.938 16.1207 0.068074 0.363164 -2.871232
2007-01-16 08:30:06 51°10.994 2°43.909 16.08 0.068177 0.363744 -2.871232
2007-01-16 08:30:10 51°10.988 2°43.889 16.1163 0.068177 0.363751 -2.871232
2007-01-16 08:30:15 51°10.981 2°43.864 16.0856 0.068074 0.363192 -2.871232
2007-01-16 08:30:20 51°10.974 2°43.839 16.1325 0.068074 0.363205 -2.871232
2007-01-16 08:30:25 51°10.968 2°43.815 16.1062 0.068074 0.363205 -2.871232
2007-01-16 08:30:30 51°10.961 2°43.79 16.132 0.068074 0.363219 -2.871232
2007-01-16 08:30:35 51°10.953 2°43.765 16.1289 0.068074 0.363233 -2.871232
2007-01-16 08:30:40 51°10.947 2°43.741 16.0962 0.068074 0.363233 -2.871232
2007-01-16 08:30:45 51°10.94 2°43.716 16.1173 0.068074 0.363247 -2.871232
2007-01-16 08:30:51 51°10.932 2°43.686 16.1277 0.068074 0.363254 -2.871232
2007-01-16 08:30:55 51°10.926 2°43.666 16.1158 0.068074 0.363254 -2.871232
2007-01-16 08:31:00 51°10.919 2°43.642 16.1142 0.068074 0.363268 -2.871232
2007-01-16 08:31:05 51°10.912 2°43.617 16.1291 0.068074 0.363275 -2.871232
2007-01-16 08:31:10 51°10.905 2°43.592 16.1187 0.068074 0.363289 -2.871232
2007-01-16 08:31:15 51°10.898 2°43.568 16.1006 0.068074 0.363296 -2.871232
2007-01-16 08:31:20 51°10.891 2°43.543 16.1038 0.068074 0.36331 -2.871232
2007-01-16 08:31:25 51°10.884 2°43.518 16.1245 0.068074 0.36331 -2.871232
2007-01-16 08:31:30 51°10.878 2°43.493 16.1241 0.068074 0.363316 -2.871232
2007-01-16 08:31:36 51°10.869 2°43.463 16.1105 0.068074 0.36333 -2.871232
2007-01-16 08:31:40 51°10.864 2°43.443 16.1478 0.068074 0.363337 -2.871232
2007-01-16 08:31:46 51°10.856 2°43.414 16.135 0.068074 0.363351 -2.871232
2007-01-16 08:31:50 51°10.85 2°43.394 16.1411 0.068074 0.363358 -2.871232
2007-01-16 08:31:55 51°10.843 2°43.369 16.1256 0.068074 0.363358 -2.871232
2007-01-16 08:32:00 51°10.836 2°43.345 16.1329 0.068074 0.363372 -2.871232
2007-01-16 08:32:06 51°10.828 2°43.315 16.1433 0.068074 0.363379 -2.871232
2007-01-16 08:32:10 51°10.822 2°43.295 16.1077 0.068074 0.363393 -2.871232
2007-01-16 08:32:15 51°10.815 2°43.27 16.1565 0.068074 0.363393 -2.871232
2007-01-16 08:32:20 51°10.808 2°43.246 16.119 0.068074 0.363414 -2.871232
2007-01-16 08:32:26 51°10.8 2°43.216 16.1296 0.068074 0.363414 -2.871232
2007-01-16 08:32:30 51°10.794 2°43.196 16.1449 0.068074 0.363421 -2.871232
2007-01-16 08:32:35 51°10.787 2°43.172 16.1502 0.067971 0.362861 -2.871232
2007-01-16 08:32:40 51°10.781 2°43.147 16.1138 0.067971 0.362868 -2.871232
2007-01-16 08:32:45 51°10.774 2°43.122 16.1356 0.068074 0.363448 -2.871232
2007-01-16 08:32:50 51°10.767 2°43.098 16.1591 0.067971 0.362889 -2.871232
2007-01-16 08:32:55 51°10.76 2°43.073 16.1571 0.067971 0.362889 -2.871232
2007-01-16 08:33:00 51°10.753 2°43.048 16.1582 0.068074 0.363476 -2.871232
2007-01-16 08:33:05 51°10.746 2°43.023 16.1329 0.067971 0.362916 -2.871232
2007-01-16 08:33:10 51°10.74 2°42.999 16.1417 0.068074 0.36349 -2.871232
2007-01-16 08:33:15 51°10.733 2°42.974 16.1488 0.068074 0.363497 -2.871232
2007-01-16 08:33:20 51°10.726 2°42.949 16.1521 0.068074 0.363511 -2.871232
2007-01-16 08:33:25 51°10.719 2°42.924 16.1253 0.068074 0.363511 -2.871232
2007-01-16 08:33:30 51°10.712 2°42.9 16.1274 0.067971 0.362951 -2.871232
2007-01-16 08:33:35 51°10.705 2°42.875 16.1619 0.067971 0.362965 -2.871232
2007-01-16 08:33:40 51°10.698 2°42.85 16.1621 0.068074 0.363539 -2.871232
2007-01-16 08:33:45 51°10.691 2°42.826 16.1454 0.067971 0.362979 -2.871232
2007-01-16 08:33:50 51°10.685 2°42.801 16.1638 0.068074 0.36356 -2.871232
2007-01-16 08:33:55 51°10.678 2°42.776 16.1783 0.068074 0.36356 -2.871232
2007-01-16 08:34:00 51°10.671 2°42.751 16.1778 0.067971 0.363007 -2.871232
2007-01-16 08:34:05 51°10.664 2°42.726 16.1424 0.068074 0.36358 -2.871232
2007-01-16 08:34:10 51°10.657 2°42.702 16.171 0.068074 0.363594 -2.871232
2007-01-16 08:34:15 51°10.65 2°42.677 16.1434 0.067971 0.363034 -2.871232
2007-01-16 08:34:20 51°10.644 2°42.652 16.1808 0.067971 0.363041 -2.871232
2007-01-16 08:34:26 51°10.635 2°42.623 16.1767 0.067971 0.363041 -2.871232
2007-01-16 08:34:30 51°10.63 2°42.603 16.1391 0.067971 0.363055 -2.871232
2007-01-16 08:34:35 51°10.623 2°42.578 16.1496 0.068074 0.363629 -2.871232
2007-01-16 08:34:40 51°10.616 2°42.554 16.1714 0.067971 0.363076 -2.871232
2007-01-16 08:34:46 51°10.608 2°42.524 16.1758 0.067971 0.363083 -2.871232
2007-01-16 08:34:50 51°10.602 2°42.504 16.1811 0.067971 0.363097 -2.871232
2007-01-16 08:34:55 51°10.595 2°42.48 16.1601 0.067971 0.363097 -2.871232
2007-01-16 08:35:00 51°10.589 2°42.455 16.1741 0.067971 0.363111 -2.871232
2007-01-16 08:35:05 51°10.582 2°42.43 16.1848 0.067971 0.363118 -2.871232
2007-01-16 08:35:11 51°10.574 2°42.401 16.1787 0.067971 0.363131 -2.871232
2007-01-16 08:35:15 51°10.568 2°42.381 16.1812 0.067971 0.363138 -2.871232
2007-01-16 08:35:20 51°10.561 2°42.357 16.1873 0.067971 0.363152 -2.871232
2007-01-16 08:35:25 51°10.554 2°42.332 16.1691 0.067971 0.363152 -2.871232
2007-01-16 08:35:30 51°10.547 2°42.308 16.1554 0.067971 0.363159 -2.871232
2007-01-16 08:35:35 51°10.54 2°42.283 16.184 0.067971 0.363173 -2.871232
2007-01-16 08:35:40 51°10.533 2°42.258 16.1757 0.067971 0.36318 -2.871232
2007-01-16 08:35:45 51°10.527 2°42.233 16.1911 0.067971 0.363194 -2.871232
2007-01-16 08:35:50 51°10.52 2°42.209 16.1629 0.067971 0.363201 -2.871232
2007-01-16 08:35:55 51°10.513 2°42.184 16.1963 0.067971 0.363201 -2.871232
2007-01-16 08:36:00 51°10.506 2°42.16 16.1583 0.067971 0.363215 -2.871232
2007-01-16 08:36:05 51°10.499 2°42.135 16.1616 0.067971 0.363222 -2.871232
2007-01-16 08:36:10 51°10.492 2°42.11 16.1898 0.067971 0.363229 -2.871232
2007-01-16 08:36:15 51°10.485 2°42.086 16.1697 0.067971 0.363236 -2.871232
2007-01-16 08:36:20 51°10.479 2°42.061 16.1969 0.067971 0.36325 -2.871232
2007-01-16 08:36:26 51°10.47 2°42.031 16.1726 0.067971 0.36325 -2.871232
2007-01-16 08:36:30 51°10.465 2°42.012 16.2086 0.067971 0.363263 -2.871232
2007-01-16 08:36:35 51°10.458 2°41.987 16.1947 0.067971 0.363277 -2.871232
2007-01-16 08:36:40 51°10.451 2°41.963 16.1907 0.067868 0.362717 -2.871232
2007-01-16 08:36:46 51°10.443 2°41.933 16.1873 0.067971 0.363291 -2.871232
2007-01-16 08:36:50 51°10.437 2°41.913 16.1983 0.067868 0.362738 -2.871232
2007-01-16 08:36:55 51°10.431 2°41.889 16.1915 0.067868 0.362738 -2.871232
2007-01-16 08:37:00 51°10.424 2°41.864 16.1826 0.067971 0.363312 -2.871232
2007-01-16 08:37:05 51°10.417 2°41.84 16.1959 0.067868 0.362752 -2.871232
2007-01-16 08:37:10 51°10.41 2°41.815 16.1914 0.067971 0.363333 -2.871232
2007-01-16 08:37:15 51°10.403 2°41.791 16.1763 0.067971 0.363347 -2.871232
2007-01-16 08:37:20 51°10.396 2°41.766 16.1956 0.067971 0.363354 -2.871232
2007-01-16 08:37:25 51°10.389 2°41.742 16.1774 0.067971 0.363354 -2.871232
2007-01-16 08:37:30 51°10.382 2°41.717 16.1928 0.067868 0.362793 -2.871232
2007-01-16 08:37:35 51°10.375 2°41.692 16.1885 0.067868 0.362807 -2.871232
2007-01-16 08:37:40 51°10.368 2°41.668 16.1871 0.067868 0.362814 -2.871232
2007-01-16 08:37:45 51°10.361 2°41.643 16.2126 0.067868 0.362828 -2.871232
2007-01-16 08:37:50 51°10.354 2°41.619 16.1938 0.067971 0.363403 -2.871232
2007-01-16 08:37:55 51°10.347 2°41.595 16.2162 0.067971 0.363403 -2.871232
2007-01-16 08:38:00 51°10.34 2°41.57 16.1909 0.067971 0.363416 -2.871232
2007-01-16 08:38:06 51°10.332 2°41.54 16.2134 0.067868 0.362849 -2.871232
2007-01-16 08:38:10 51°10.326 2°41.521 16.1999 0.067868 0.36287 -2.871232
2007-01-16 08:38:15 51°10.319 2°41.496 16.1904 0.067868 0.36287 -2.871232
2007-01-16 08:38:20 51°10.312 2°41.472 16.1891 0.067868 0.362884 -2.871232
2007-01-16 08:38:26 51°10.304 2°41.442 16.2024 0.067868 0.362884 -2.871232
2007-01-16 08:38:30 51°10.299 2°41.422 16.2136 0.067868 0.362898 -2.871232
2007-01-16 08:38:35 51°10.292 2°41.398 16.1969 0.067868 0.362905 -2.871232
2007-01-16 08:38:40 51°10.285 2°41.373 16.2233 0.067971 0.363486 -2.871232
2007-01-16 08:38:45 51°10.279 2°41.348 16.2305 0.067868 0.362925 -2.871232
2007-01-16 08:38:50 51°10.272 2°41.324 16.2122 0.067868 0.362932 -2.871232
2007-01-16 08:38:55 51°10.265 2°41.299 16.2181 0.067868 0.362932 -2.871232
2007-01-16 08:39:01 51°10.257 2°41.27 16.2343 0.067868 0.362946 -2.871232
2007-01-16 08:39:06 51°10.25 2°41.246 16.2 0.067868 0.362953 -2.871232
2007-01-16 08:39:10 51°10.245 2°41.226 16.2215 0.067868 0.36296 -2.871232
2007-01-16 08:39:15 51°10.239 2°41.202 16.2119 0.067868 0.362974 -2.871232
2007-01-16 08:39:20 51°10.232 2°41.177 16.2205 0.067868 0.362981 -2.871232
2007-01-16 08:39:26 51°10.224 2°41.148 16.2418 0.067868 0.362981 -2.871232
2007-01-16 08:39:30 51°10.218 2°41.129 16.2024 0.067868 0.362995 -2.871232
2007-01-16 08:39:35 51°10.211 2°41.105 16.2301 0.067868 0.363002 -2.871232
2007-01-16 08:39:40 51°10.204 2°41.081 16.2097 0.067868 0.363016 -2.871232
2007-01-16 08:39:45 51°10.198 2°41.056 16.2353 0.067868 0.363023 -2.871232
2007-01-16 08:39:51 51°10.19 2°41.027 16.204 0.067868 0.36303 -2.871232
2007-01-16 08:39:55 51°10.184 2°41.008 16.2036 0.067868 0.36303 -2.871232
2007-01-16 08:40:00 51°10.177 2°40.983 16.2504 0.067868 0.363044 -2.871232
2007-01-16 08:40:05 51°10.17 2°40.959 16.2278 0.067868 0.363057 -2.871232
2007-01-16 08:40:10 51°10.164 2°40.935 16.2383 0.067868 0.363064 -2.871232
2007-01-16 08:40:15 51°10.157 2°40.911 16.243 0.067868 0.363078 -2.871232
2007-01-16 08:40:20 51°10.15 2°40.887 16.2259 0.067868 0.363085 -2.871232
2007-01-16 08:40:25 51°10.144 2°40.863 16.2432 0.067868 0.363085 -2.871232
2007-01-16 08:40:30 51°10.137 2°40.839 16.1981 0.067868 0.363092 -2.871232
2007-01-16 08:40:35 51°10.13 2°40.814 16.2446 0.067765 0.362538 -2.871232
2007-01-16 08:40:40 51°10.123 2°40.791 16.2209 0.067868 0.363113 -2.871232
2007-01-16 08:40:46 51°10.115 2°40.761 16.2308 0.067765 0.362552 -2.871232
2007-01-16 08:40:50 51°10.11 2°40.742 16.203 0.067868 0.363134 -2.871232
2007-01-16 08:40:55 51°10.103 2°40.718 16.2421 0.067868 0.363134 -2.871232
2007-01-16 08:41:00 51°10.096 2°40.694 16.2475 0.067765 0.362573 -2.871232
2007-01-16 08:41:06 51°10.088 2°40.666 16.2259 0.067765 0.362587 -2.871232
2007-01-16 08:41:10 51°10.083 2°40.646 16.1998 0.067765 0.362594 -2.871232
2007-01-16 08:41:15 51°10.076 2°40.622 16.231 0.067868 0.363176 -2.871232
2007-01-16 08:41:20 51°10.069 2°40.598 16.2473 0.067868 0.363183 -2.871232
2007-01-16 08:41:26 51°10.061 2°40.569 16.2346 0.067868 0.363183 -2.871232
2007-01-16 08:41:30 51°10.055 2°40.55 16.2031 0.067868 0.363197 -2.871232
2007-01-16 08:41:35 51°10.048 2°40.526 16.2112 0.067765 0.362636 -2.871232
2007-01-16 08:41:40 51°10.041 2°40.502 16.2209 0.067765 0.362643 -2.871232
2007-01-16 08:41:46 51°10.033 2°40.473 16.2425 0.067765 0.362656 -2.871232
2007-01-16 08:41:50 51°10.027 2°40.453 16.2411 0.067765 0.362663 -2.871232
2007-01-16 08:41:55 51°10.02 2°40.429 16.2346 0.067765 0.362663 -2.871232
2007-01-16 08:42:00 51°10.014 2°40.405 16.2378 0.067765 0.362677 -2.871232
2007-01-16 08:42:05 51°10.007 2°40.381 16.2546 0.067868 0.363252 -2.871232
2007-01-16 08:42:10 51°10 2°40.357 16.2474 0.067765 0.362691 -2.871232
2007-01-16 08:42:15 51°9.993 2°40.333 16.2395 0.067868 0.363273 -2.871232
2007-01-16 08:42:20 51°9.986 2°40.309 16.2365 0.067765 0.362719 -2.871232
2007-01-16 08:42:26 51°9.978 2°40.28 16.2475 0.067765 0.362719 -2.871232
2007-01-16 08:42:30 51°9.972 2°40.26 16.2225 0.067765 0.362726 -2.871232
2007-01-16 08:42:35 51°9.965 2°40.236 16.2545 0.067765 0.36274 -2.871232
2007-01-16 08:42:40 51°9.958 2°40.212 16.2657 0.067765 0.362747 -2.871232
2007-01-16 08:42:45 51°9.952 2°40.188 16.259 0.067765 0.362754 -2.871232
2007-01-16 08:42:50 51°9.945 2°40.163 16.2375 0.067765 0.362768 -2.871232
2007-01-16 08:42:55 51°9.938 2°40.139 16.2338 0.067765 0.362768 -2.871232
2007-01-16 08:43:00 51°9.932 2°40.115 16.274 0.067765 0.362775 -2.871232
2007-01-16 08:43:05 51°9.925 2°40.091 16.2381 0.067765 0.362789 -2.871232
2007-01-16 08:43:10 51°9.918 2°40.066 16.2702 0.067765 0.362796 -2.871232
2007-01-16 08:43:15 51°9.911 2°40.042 16.2445 0.067765 0.362809 -2.871232
2007-01-16 08:43:20 51°9.904 2°40.018 16.2372 0.067765 0.362823 -2.871232
2007-01-16 08:43:26 51°9.896 2°39.989 16.2543 0.067765 0.362823 -2.871232
2007-01-16 08:43:30 51°9.891 2°39.97 16.2462 0.067765 0.36283 -2.871232
2007-01-16 08:43:35 51°9.884 2°39.945 16.2702 0.067765 0.362844 -2.871232
2007-01-16 08:43:40 51°9.877 2°39.921 16.2707 0.067765 0.362851 -2.871232
2007-01-16 08:43:46 51°9.869 2°39.892 16.2723 0.067765 0.362858 -2.871232
2007-01-16 08:43:50 51°9.863 2°39.873 16.272 0.067765 0.362872 -2.871232
2007-01-16 08:43:55 51°9.856 2°39.849 16.2578 0.067765 0.362872 -2.871232
2007-01-16 08:44:00 51°9.849 2°39.825 16.2422 0.067765 0.362886 -2.871232
2007-01-16 08:44:05 51°9.843 2°39.8 16.2668 0.067765 0.362893 -2.871232
2007-01-16 08:44:11 51°9.834 2°39.771 16.2273 0.067765 0.3629 -2.871232
2007-01-16 08:44:15 51°9.829 2°39.752 16.2869 0.067765 0.362914 -2.871232
2007-01-16 08:44:20 51°9.822 2°39.727 16.2732 0.067765 0.362928 -2.871232
2007-01-16 08:44:25 51°9.815 2°39.703 16.2278 0.067765 0.362928 -2.871232
2007-01-16 08:44:31 51°9.807 2°39.674 16.277 0.067765 0.362935 -2.871232
2007-01-16 08:44:35 51°9.802 2°39.654 16.2507 0.067765 0.362949 -2.871232
2007-01-16 08:44:40 51°9.795 2°39.63 16.2597 0.067765 0.362949 -2.871232
2007-01-16 08:44:45 51°9.788 2°39.606 16.2914 0.067765 0.362963 -2.871232
2007-01-16 08:44:50 51°9.781 2°39.582 16.2821 0.067765 0.362976 -2.871232
2007-01-16 08:44:55 51°9.774 2°39.557 16.2756 0.067765 0.362976 -2.871232
2007-01-16 08:45:00 51°9.767 2°39.533 16.2763 0.067662 0.362415 -2.871232
2007-01-16 08:45:06 51°9.759 2°39.504 16.2407 0.067765 0.362997 -2.871232
2007-01-16 08:45:10 51°9.754 2°39.485 16.288 0.067765 0.363004 -2.871232
2007-01-16 08:45:16 51°9.745 2°39.456 16.2444 0.067765 0.363018 -2.871232
2007-01-16 08:45:20 51°9.74 2°39.436 16.2916 0.067662 0.362457 -2.871232
2007-01-16 08:45:26 51°9.732 2°39.407 16.2706 0.067662 0.362457 -2.871232
2007-01-16 08:45:30 51°9.727 2°39.387 16.2819 0.067662 0.362471 -2.871232
2007-01-16 08:45:35 51°9.721 2°39.362 16.2975 0.067662 0.362478 -2.871232
2007-01-16 08:45:40 51°9.714 2°39.338 16.274 0.067765 0.36306 -2.871232
2007-01-16 08:45:46 51°9.706 2°39.309 16.2934 0.067662 0.362498 -2.871232
2007-01-16 08:45:50 51°9.701 2°39.289 16.2748 0.067765 0.363081 -2.871232
2007-01-16 08:45:55 51°9.694 2°39.265 16.2763 0.067765 0.363081 -2.871232
2007-01-16 08:46:00 51°9.687 2°39.24 16.3031 0.067662 0.362519 -2.871232
2007-01-16 08:46:06 51°9.679 2°39.21 16.2946 0.067662 0.362533 -2.871232
2007-01-16 08:46:10 51°9.674 2°39.191 16.265 0.067662 0.36254 -2.871232
2007-01-16 08:46:15 51°9.667 2°39.166 16.2717 0.067662 0.362554 -2.871232
2007-01-16 08:46:20 51°9.661 2°39.141 16.3016 0.067662 0.362561 -2.871232
2007-01-16 08:46:26 51°9.653 2°39.112 16.2664 0.067662 0.362561 -2.871232
2007-01-16 08:46:30 51°9.648 2°39.092 16.2707 0.067765 0.363144 -2.871232
2007-01-16 08:46:35 51°9.641 2°39.067 16.3038 0.067662 0.362582 -2.871232
2007-01-16 08:46:40 51°9.634 2°39.042 16.2857 0.067662 0.362596 -2.871232
2007-01-16 08:46:45 51°9.628 2°39.018 16.3117 0.067662 0.362603 -2.871232
2007-01-16 08:46:50 51°9.621 2°38.993 16.303 0.067662 0.362624 -2.871232
2007-01-16 08:46:55 51°9.615 2°38.968 16.2809 0.067662 0.362624 -2.871232
2007-01-16 08:47:00 51°9.608 2°38.943 16.2982 0.067662 0.362624 -2.871232
2007-01-16 08:47:05 51°9.601 2°38.918 16.2733 0.067662 0.362638 -2.871232
2007-01-16 08:47:10 51°9.595 2°38.893 16.2819 0.067662 0.362645 -2.871232
2007-01-16 08:47:15 51°9.588 2°38.868 16.2966 0.067765 0.36322 -2.871232
2007-01-16 08:47:20 51°9.582 2°38.843 16.2971 0.067662 0.362665 -2.871232
2007-01-16 08:47:25 51°9.575 2°38.818 16.3025 0.067662 0.362665 -2.871232
2007-01-16 08:47:30 51°9.569 2°38.793 16.2853 0.06756 0.362104 -2.871232
2007-01-16 08:47:35 51°9.562 2°38.768 16.3048 0.067662 0.362686 -2.871232
2007-01-16 08:47:40 51°9.555 2°38.743 16.3128 0.067662 0.3627 -2.871232
2007-01-16 08:47:46 51°9.547 2°38.714 16.3085 0.067662 0.362714 -2.871232
2007-01-16 08:47:50 51°9.542 2°38.694 16.2839 0.06756 0.362152 -2.871232
2007-01-16 08:47:55 51°9.535 2°38.669 16.3174 0.06756 0.362152 -2.871232
2007-01-16 08:48:00 51°9.529 2°38.644 16.3116 0.067662 0.362735 -2.871232
2007-01-16 08:48:06 51°9.521 2°38.614 16.3201 0.067662 0.362742 -2.871232
2007-01-16 08:48:10 51°9.516 2°38.594 16.3076 0.067662 0.362749 -2.871232
2007-01-16 08:48:15 51°9.509 2°38.569 16.318 0.067662 0.362763 -2.871232
2007-01-16 08:48:20 51°9.502 2°38.544 16.3187 0.06756 0.362201 -2.871232
2007-01-16 08:48:26 51°9.495 2°38.514 16.2802 0.06756 0.362201 -2.871232
2007-01-16 08:48:31 51°9.489 2°38.489 16.3122 0.06756 0.362215 -2.871232
2007-01-16 08:48:35 51°9.484 2°38.469 16.2883 0.06756 0.362222 -2.871232
2007-01-16 08:48:40 51°9.477 2°38.444 16.292 0.067662 0.362805 -2.871232
2007-01-16 08:48:45 51°9.472 2°38.418 16.3256 0.06756 0.36225 -2.871232
2007-01-16 08:48:50 51°9.465 2°38.393 16.3217 0.067662 0.362833 -2.871232
2007-01-16 08:48:55 51°9.46 2°38.368 16.3069 0.067662 0.362833 -2.871232
2007-01-16 08:49:00 51°9.453 2°38.342 16.3296 0.06756 0.362277 -2.871232
2007-01-16 08:49:05 51°9.447 2°38.317 16.3097 0.06756 0.362284 -2.871232
2007-01-16 08:49:10 51°9.441 2°38.292 16.3256 0.067662 0.362868 -2.871232
2007-01-16 08:49:15 51°9.435 2°38.266 16.3297 0.06756 0.362305 -2.871232
2007-01-16 08:49:20 51°9.429 2°38.241 16.315 0.06756 0.362319 -2.871232
2007-01-16 08:49:26 51°9.422 2°38.21 16.331 0.06756 0.362319 -2.871232
2007-01-16 08:49:30 51°9.417 2°38.19 16.3344 0.06756 0.362333 -2.871232
2007-01-16 08:49:35 51°9.411 2°38.165 16.3344 0.067662 0.362909 -2.871232
2007-01-16 08:49:40 51°9.405 2°38.139 16.2998 0.067662 0.362923 -2.871232
2007-01-16 08:49:46 51°9.398 2°38.109 16.3423 0.06756 0.362368 -2.871232
2007-01-16 08:49:50 51°9.393 2°38.089 16.3428 0.06756 0.362382 -2.871232
2007-01-16 08:49:55 51°9.387 2°38.063 16.3382 0.06756 0.362382 -2.871232
2007-01-16 08:50:00 51°9.381 2°38.038 16.3303 0.067662 0.362958 -2.871232
2007-01-16 08:50:06 51°9.373 2°38.007 16.3176 0.06756 0.362403 -2.871232
2007-01-16 08:50:10 51°9.369 2°37.987 16.3376 0.06756 0.36241 -2.871232
2007-01-16 08:50:15 51°9.362 2°37.962 16.321 0.06756 0.362424 -2.871232
2007-01-16 08:50:20 51°9.356 2°37.937 16.3356 0.06756 0.362438 -2.871232
2007-01-16 08:50:26 51°9.349 2°37.906 16.3269 0.06756 0.362438 -2.871232
2007-01-16 08:50:30 51°9.344 2°37.886 16.3403 0.06756 0.362445 -2.871232
2007-01-16 08:50:35 51°9.338 2°37.861 16.3529 0.06756 0.362459 -2.871232
2007-01-16 08:50:40 51°9.332 2°37.836 16.3494 0.067662 0.363042 -2.871232
2007-01-16 08:50:46 51°9.324 2°37.805 16.3261 0.06756 0.362479 -2.871232
2007-01-16 08:50:50 51°9.319 2°37.785 16.3507 0.06756 0.362493 -2.871232
2007-01-16 08:50:55 51°9.313 2°37.76 16.3463 0.06756 0.362493 -2.871232
2007-01-16 08:51:00 51°9.307 2°37.734 16.3493 0.06756 0.362507 -2.871232
2007-01-16 08:51:05 51°9.301 2°37.709 16.3457 0.06756 0.362514 -2.871232
2007-01-16 08:51:11 51°9.294 2°37.679 16.319 0.06756 0.362528 -2.871232
2007-01-16 08:51:15 51°9.29 2°37.658 16.3642 0.06756 0.362535 -2.871232
2007-01-16 08:51:20 51°9.283 2°37.633 16.3031 0.06756 0.362549 -2.871232
2007-01-16 08:51:25 51°9.277 2°37.608 16.3501 0.06756 0.362549 -2.871232
2007-01-16 08:51:30 51°9.271 2°37.583 16.3419 0.06756 0.362556 -2.871232
2007-01-16 08:51:35 51°9.265 2°37.557 16.3748 0.06756 0.362577 -2.871232
2007-01-16 08:51:40 51°9.259 2°37.532 16.3229 0.06756 0.362584 -2.871232
2007-01-16 08:51:45 51°9.253 2°37.507 16.3528 0.06756 0.362598 -2.871232
2007-01-16 08:51:50 51°9.247 2°37.482 16.329 0.06756 0.362605 -2.871232
2007-01-16 08:51:55 51°9.241 2°37.456 16.3614 0.06756 0.362605 -2.871232
2007-01-16 08:52:00 51°9.235 2°37.431 16.3453 0.067457 0.362049 -2.871232
2007-01-16 08:52:06 51°9.228 2°37.401 16.356 0.06756 0.362633 -2.871232
2007-01-16 08:52:10 51°9.224 2°37.38 16.3527 0.06756 0.36264 -2.871232
2007-01-16 08:52:15 51°9.218 2°37.355 16.3556 0.06756 0.362654 -2.871232
2007-01-16 08:52:20 51°9.212 2°37.329 16.3759 0.06756 0.362661 -2.871232
2007-01-16 08:52:26 51°9.205 2°37.299 16.3697 0.06756 0.362661 -2.871232
2007-01-16 08:52:30 51°9.2 2°37.279 16.3334 0.06756 0.362675 -2.871232
2007-01-16 08:52:35 51°9.194 2°37.253 16.3731 0.06756 0.362682 -2.871232
2007-01-16 08:52:40 51°9.188 2°37.228 16.3663 0.067457 0.362126 -2.871232
2007-01-16 08:52:46 51°9.181 2°37.197 16.3528 0.067457 0.362147 -2.871232
2007-01-16 08:52:50 51°9.176 2°37.177 16.3687 0.06756 0.362724 -2.871232
2007-01-16 08:52:55 51°9.171 2°37.152 16.3551 0.06756 0.362724 -2.871232
2007-01-16 08:53:00 51°9.165 2°37.126 16.3476 0.06756 0.362737 -2.871232
2007-01-16 08:53:05 51°9.16 2°37.1 16.3755 0.06756 0.362744 -2.871232
2007-01-16 08:53:10 51°9.154 2°37.074 16.3617 0.06756 0.362758 -2.871232
2007-01-16 08:53:15 51°9.149 2°37.049 16.3721 0.06756 0.362772 -2.871232
2007-01-16 08:53:20 51°9.144 2°37.023 16.3428 0.067457 0.362209 -2.871232
2007-01-16 08:53:25 51°9.139 2°36.997 16.3997 0.067457 0.362209 -2.871232
2007-01-16 08:53:30 51°9.133 2°36.972 16.3692 0.06756 0.362793 -2.871232
2007-01-16 08:53:35 51°9.128 2°36.946 16.3906 0.067457 0.362237 -2.871232
2007-01-16 08:53:40 51°9.123 2°36.92 16.3638 0.067457 0.362251 -2.871232
2007-01-16 08:53:46 51°9.116 2°36.89 16.3889 0.067457 0.362258 -2.871232
2007-01-16 08:53:50 51°9.112 2°36.869 16.3665 0.067457 0.362272 -2.871232
2007-01-16 08:53:55 51°9.106 2°36.844 16.3938 0.067457 0.362272 -2.871232
2007-01-16 08:54:00 51°9.101 2°36.818 16.3485 0.067457 0.362279 -2.871232
2007-01-16 08:54:06 51°9.095 2°36.787 16.3957 0.067457 0.362293 -2.871232
2007-01-16 08:54:10 51°9.09 2°36.767 16.3618 0.067457 0.362307 -2.871232
2007-01-16 08:54:15 51°9.085 2°36.741 16.3862 0.067457 0.362314 -2.871232
2007-01-16 08:54:20 51°9.08 2°36.715 16.3921 0.067457 0.362328 -2.871232
2007-01-16 08:54:26 51°9.073 2°36.685 16.363 0.067457 0.362328 -2.871232
2007-01-16 08:54:30 51°9.069 2°36.664 16.3685 0.067457 0.362342 -2.871232
2007-01-16 08:54:35 51°9.064 2°36.639 16.4055 0.067457 0.362349 -2.871232
2007-01-16 08:54:41 51°9.057 2°36.608 16.3676 0.067457 0.362363 -2.871232
2007-01-16 08:54:46 51°9.052 2°36.583 16.3912 0.067457 0.362384 -2.871232
2007-01-16 08:54:50 51°9.047 2°36.563 16.3667 0.067457 0.362391 -2.871232
2007-01-16 08:54:55 51°9.042 2°36.537 16.3842 0.067457 0.362391 -2.871232
2007-01-16 08:55:00 51°9.036 2°36.512 16.3764 0.067457 0.362405 -2.871232
2007-01-16 08:55:06 51°9.03 2°36.482 16.4214 0.067457 0.362412 -2.871232
2007-01-16 08:55:10 51°9.026 2°36.461 16.3567 0.067457 0.362419 -2.871232
2007-01-16 08:55:15 51°9.021 2°36.436 16.3912 0.067457 0.362433 -2.871232
2007-01-16 08:55:20 51°9.016 2°36.41 16.38 0.067457 0.362433 -2.871232
2007-01-16 08:55:25 51°9.011 2°36.384 16.3889 0.067457 0.362433 -2.871232
2007-01-16 08:55:31 51°9.005 2°36.354 16.4124 0.067457 0.362447 -2.871232
2007-01-16 08:55:35 51°9.001 2°36.333 16.3925 0.067457 0.362454 -2.871232
2007-01-16 08:55:40 51°8.995 2°36.308 16.3913 0.067354 0.361897 -2.871232
2007-01-16 08:55:45 51°8.99 2°36.282 16.3931 0.067457 0.362482 -2.871232
2007-01-16 08:55:50 51°8.985 2°36.257 16.3789 0.067457 0.362496 -2.871232
2007-01-16 08:55:55 51°8.979 2°36.232 16.3977 0.067457 0.362496 -2.871232
2007-01-16 08:56:00 51°8.974 2°36.206 16.4114 0.067354 0.361939 -2.871232
2007-01-16 08:56:05 51°8.969 2°36.181 16.3846 0.067457 0.362523 -2.871232
2007-01-16 08:56:10 51°8.963 2°36.156 16.3979 0.067457 0.362537 -2.871232
2007-01-16 08:56:15 51°8.958 2°36.13 16.3856 0.067457 0.362551 -2.871232
2007-01-16 08:56:20 51°8.953 2°36.105 16.4172 0.067457 0.362558 -2.871232
2007-01-16 08:56:26 51°8.947 2°36.074 16.4255 0.067457 0.362558 -2.871232
2007-01-16 08:56:30 51°8.942 2°36.054 16.3968 0.067457 0.362579 -2.871232
2007-01-16 08:56:36 51°8.936 2°36.023 16.4367 0.067457 0.362586 -2.871232
2007-01-16 08:56:40 51°8.932 2°36.003 16.3871 0.067457 0.362593 -2.871232
2007-01-16 08:56:46 51°8.926 2°35.973 16.4295 0.067457 0.362607 -2.871232
2007-01-16 08:56:50 51°8.921 2°35.952 16.3909 0.067457 0.362614 -2.871232
2007-01-16 08:56:55 51°8.916 2°35.927 16.4003 0.067457 0.362614 -2.871232
2007-01-16 08:57:00 51°8.911 2°35.902 16.4143 0.067457 0.362628 -2.871232
2007-01-16 08:57:06 51°8.905 2°35.872 16.4326 0.067457 0.362635 -2.871232
2007-01-16 08:57:10 51°8.9 2°35.851 16.4026 0.067457 0.362649 -2.871232
2007-01-16 08:57:15 51°8.895 2°35.826 16.4254 0.067457 0.362663 -2.871232
2007-01-16 08:57:20 51°8.889 2°35.801 16.4005 0.067457 0.362677 -2.871232
2007-01-16 08:57:26 51°8.883 2°35.77 16.4257 0.067457 0.362677 -2.871232
2007-01-16 08:57:30 51°8.879 2°35.75 16.3914 0.067354 0.36212 -2.871232
2007-01-16 08:57:35 51°8.874 2°35.724 16.4287 0.067457 0.362698 -2.871232